<?xml version="1.0" encoding="UTF-8" standalone="no" ?>
<gpx xmlns="http://www.topografix.com/GPX/1/1" xmlns:xsi="http://www.w3.org/2001/XMLSchema-instance" xsi:schemaLocation="http://www.topografix.com/GPX/1/1 http://www.topografix.com/GPX/1/1/gpx.xsd" version="1.1" creator="VisuGPX - https://www.visugpx.com">
  <metadata>
    <name>Pic d\'Augas</name>
    <desc><![CDATA[depuis l\'ancienne douane]]></desc>
  </metadata>
  <trk>
    <name><![CDATA[Move]]></name>
    <trkseg>
      <trkpt lat="42.7736" lon="0.19943">
        <ele>1559</ele>
        <time>2015-01-03T10:08:35.000Z</time>
      </trkpt>
      <trkpt lat="42.77362" lon="0.19956">
        <ele>1559</ele>
        <time>2015-01-03T10:08:48.490Z</time>
      </trkpt>
      <trkpt lat="42.77362" lon="0.1997">
        <ele>1562</ele>
        <time>2015-01-03T10:09:02.490Z</time>
      </trkpt>
      <trkpt lat="42.77357" lon="0.19984">
        <ele>1562</ele>
        <time>2015-01-03T10:09:13.490Z</time>
      </trkpt>
      <trkpt lat="42.77358" lon="0.19998">
        <ele>1564</ele>
        <time>2015-01-03T10:09:22.490Z</time>
      </trkpt>
      <trkpt lat="42.77362" lon="0.20011">
        <ele>1565</ele>
        <time>2015-01-03T10:09:33.490Z</time>
      </trkpt>
      <trkpt lat="42.77365" lon="0.20024">
        <ele>1567</ele>
        <time>2015-01-03T10:09:47.490Z</time>
      </trkpt>
      <trkpt lat="42.7736" lon="0.20037">
        <ele>1569.6799872</ele>
        <time>2015-01-03T10:10:00.490Z</time>
      </trkpt>
      <trkpt lat="42.77356" lon="0.20047">
        <ele>1571</ele>
        <time>2015-01-03T10:10:09.490Z</time>
      </trkpt>
      <trkpt lat="42.77351" lon="0.20056">
        <ele>1573</ele>
        <time>2015-01-03T10:10:18.490Z</time>
      </trkpt>
      <trkpt lat="42.77346" lon="0.20064">
        <ele>1573</ele>
        <time>2015-01-03T10:10:28.490Z</time>
      </trkpt>
      <trkpt lat="42.77342" lon="0.20075">
        <ele>1574.6799872</ele>
        <time>2015-01-03T10:10:40.490Z</time>
      </trkpt>
      <trkpt lat="42.77339" lon="0.20085">
        <ele>1578</ele>
        <time>2015-01-03T10:10:54.490Z</time>
      </trkpt>
      <trkpt lat="42.77334" lon="0.20095">
        <ele>1580</ele>
        <time>2015-01-03T10:11:05.490Z</time>
      </trkpt>
      <trkpt lat="42.77334" lon="0.20106">
        <ele>1582</ele>
        <time>2015-01-03T10:11:19.490Z</time>
      </trkpt>
      <trkpt lat="42.77337" lon="0.20117">
        <ele>1586</ele>
        <time>2015-01-03T10:11:35.490Z</time>
      </trkpt>
      <trkpt lat="42.7734" lon="0.20129">
        <ele>1587.6530569596</ele>
        <time>2015-01-03T10:11:50.490Z</time>
      </trkpt>
      <trkpt lat="42.77343" lon="0.20141">
        <ele>1592</ele>
        <time>2015-01-03T10:12:09.490Z</time>
      </trkpt>
      <trkpt lat="42.77336" lon="0.20148">
        <ele>1594</ele>
        <time>2015-01-03T10:12:27.490Z</time>
      </trkpt>
      <trkpt lat="42.77329" lon="0.20154">
        <ele>1597</ele>
        <time>2015-01-03T10:12:43.490Z</time>
      </trkpt>
      <trkpt lat="42.77332" lon="0.20168">
        <ele>1601</ele>
        <time>2015-01-03T10:13:18.500Z</time>
      </trkpt>
      <trkpt lat="42.77326" lon="0.20176">
        <ele>1608</ele>
        <time>2015-01-03T10:14:01.490Z</time>
      </trkpt>
      <trkpt lat="42.77317" lon="0.20183">
        <ele>1613</ele>
        <time>2015-01-03T10:14:35.390Z</time>
      </trkpt>
      <trkpt lat="42.77306" lon="0.20185">
        <ele>1615</ele>
        <time>2015-01-03T10:14:55.490Z</time>
      </trkpt>
      <trkpt lat="42.77314" lon="0.20193">
        <ele>1624</ele>
        <time>2015-01-03T10:16:31.490Z</time>
      </trkpt>
      <trkpt lat="42.77324" lon="0.20199">
        <ele>1626</ele>
        <time>2015-01-03T10:16:44.490Z</time>
      </trkpt>
      <trkpt lat="42.77322" lon="0.20212">
        <ele>1632.6799872</ele>
        <time>2015-01-03T10:17:20.490Z</time>
      </trkpt>
      <trkpt lat="42.77333" lon="0.20217">
        <ele>1635</ele>
        <time>2015-01-03T10:17:49.490Z</time>
      </trkpt>
      <trkpt lat="42.7734" lon="0.20227">
        <ele>1640</ele>
        <time>2015-01-03T10:18:01.490Z</time>
      </trkpt>
      <trkpt lat="42.77351" lon="0.20226">
        <ele>1640</ele>
        <time>2015-01-03T10:18:18.490Z</time>
      </trkpt>
      <trkpt lat="42.77359" lon="0.20235">
        <ele>1642</ele>
        <time>2015-01-03T10:18:31.490Z</time>
      </trkpt>
      <trkpt lat="42.77368" lon="0.20244">
        <ele>1642</ele>
        <time>2015-01-03T10:18:42.590Z</time>
      </trkpt>
      <trkpt lat="42.77374" lon="0.20256">
        <ele>1642</ele>
        <time>2015-01-03T10:18:52.490Z</time>
      </trkpt>
      <trkpt lat="42.77376" lon="0.20269">
        <ele>1642</ele>
        <time>2015-01-03T10:19:08.490Z</time>
      </trkpt>
      <trkpt lat="42.77373" lon="0.20283">
        <ele>1646</ele>
        <time>2015-01-03T10:19:24.490Z</time>
      </trkpt>
      <trkpt lat="42.77369" lon="0.20295">
        <ele>1647</ele>
        <time>2015-01-03T10:19:38.490Z</time>
      </trkpt>
      <trkpt lat="42.77365" lon="0.20306">
        <ele>1649</ele>
        <time>2015-01-03T10:19:48.490Z</time>
      </trkpt>
      <trkpt lat="42.77365" lon="0.2032">
        <ele>1651</ele>
        <time>2015-01-03T10:19:58.490Z</time>
      </trkpt>
      <trkpt lat="42.77371" lon="0.20332">
        <ele>1653</ele>
        <time>2015-01-03T10:20:12.490Z</time>
      </trkpt>
      <trkpt lat="42.7738" lon="0.20338">
        <ele>1653</ele>
        <time>2015-01-03T10:21:17.490Z</time>
      </trkpt>
      <trkpt lat="42.77388" lon="0.20346">
        <ele>1655.3399936</ele>
        <time>2015-01-03T10:21:30.490Z</time>
      </trkpt>
      <trkpt lat="42.77392" lon="0.20359">
        <ele>1656</ele>
        <time>2015-01-03T10:21:39.490Z</time>
      </trkpt>
      <trkpt lat="42.77396" lon="0.20371">
        <ele>1657</ele>
        <time>2015-01-03T10:21:47.490Z</time>
      </trkpt>
      <trkpt lat="42.77399" lon="0.20385">
        <ele>1659</ele>
        <time>2015-01-03T10:21:56.490Z</time>
      </trkpt>
      <trkpt lat="42.77399" lon="0.20398">
        <ele>1659</ele>
        <time>2015-01-03T10:22:06.490Z</time>
      </trkpt>
      <trkpt lat="42.774" lon="0.2041">
        <ele>1661</ele>
        <time>2015-01-03T10:22:15.490Z</time>
      </trkpt>
      <trkpt lat="42.77402" lon="0.20424">
        <ele>1662</ele>
        <time>2015-01-03T10:22:28.490Z</time>
      </trkpt>
      <trkpt lat="42.77402" lon="0.20439">
        <ele>1664</ele>
        <time>2015-01-03T10:22:39.490Z</time>
      </trkpt>
      <trkpt lat="42.77402" lon="0.20452">
        <ele>1665</ele>
        <time>2015-01-03T10:22:48.160Z</time>
      </trkpt>
      <trkpt lat="42.77403" lon="0.20467">
        <ele>1666</ele>
        <time>2015-01-03T10:22:57.490Z</time>
      </trkpt>
      <trkpt lat="42.77402" lon="0.20482">
        <ele>1666</ele>
        <time>2015-01-03T10:23:09.490Z</time>
      </trkpt>
      <trkpt lat="42.77403" lon="0.20496">
        <ele>1667</ele>
        <time>2015-01-03T10:23:19.490Z</time>
      </trkpt>
      <trkpt lat="42.77407" lon="0.20509">
        <ele>1671</ele>
        <time>2015-01-03T10:23:29.510Z</time>
      </trkpt>
      <trkpt lat="42.7741" lon="0.20522">
        <ele>1671</ele>
        <time>2015-01-03T10:23:37.490Z</time>
      </trkpt>
      <trkpt lat="42.77414" lon="0.20537">
        <ele>1672</ele>
        <time>2015-01-03T10:23:47.510Z</time>
      </trkpt>
      <trkpt lat="42.77417" lon="0.20551">
        <ele>1674</ele>
        <time>2015-01-03T10:23:58.490Z</time>
      </trkpt>
      <trkpt lat="42.77422" lon="0.20563">
        <ele>1676</ele>
        <time>2015-01-03T10:24:07.490Z</time>
      </trkpt>
      <trkpt lat="42.77425" lon="0.20576">
        <ele>1676</ele>
        <time>2015-01-03T10:24:19.490Z</time>
      </trkpt>
      <trkpt lat="42.77431" lon="0.20587">
        <ele>1678</ele>
        <time>2015-01-03T10:24:28.490Z</time>
      </trkpt>
      <trkpt lat="42.77434" lon="0.20601">
        <ele>1680</ele>
        <time>2015-01-03T10:24:37.490Z</time>
      </trkpt>
      <trkpt lat="42.77438" lon="0.20613">
        <ele>1681</ele>
        <time>2015-01-03T10:24:46.520Z</time>
      </trkpt>
      <trkpt lat="42.77442" lon="0.20626">
        <ele>1683</ele>
        <time>2015-01-03T10:24:54.490Z</time>
      </trkpt>
      <trkpt lat="42.77445" lon="0.2064">
        <ele>1685</ele>
        <time>2015-01-03T10:25:04.490Z</time>
      </trkpt>
      <trkpt lat="42.77447" lon="0.20654">
        <ele>1685</ele>
        <time>2015-01-03T10:25:12.490Z</time>
      </trkpt>
      <trkpt lat="42.77451" lon="0.20668">
        <ele>1687</ele>
        <time>2015-01-03T10:25:21.490Z</time>
      </trkpt>
      <trkpt lat="42.77456" lon="0.2068">
        <ele>1687</ele>
        <time>2015-01-03T10:25:27.490Z</time>
      </trkpt>
      <trkpt lat="42.77459" lon="0.20694">
        <ele>1690</ele>
        <time>2015-01-03T10:25:36.490Z</time>
      </trkpt>
      <trkpt lat="42.77464" lon="0.20707">
        <ele>1691</ele>
        <time>2015-01-03T10:25:45.490Z</time>
      </trkpt>
      <trkpt lat="42.77466" lon="0.2072">
        <ele>1692</ele>
        <time>2015-01-03T10:25:54.490Z</time>
      </trkpt>
      <trkpt lat="42.7747" lon="0.20734">
        <ele>1695</ele>
        <time>2015-01-03T10:26:02.490Z</time>
      </trkpt>
      <trkpt lat="42.77473" lon="0.20747">
        <ele>1697</ele>
        <time>2015-01-03T10:26:12.490Z</time>
      </trkpt>
      <trkpt lat="42.77479" lon="0.20759">
        <ele>1697</ele>
        <time>2015-01-03T10:26:21.490Z</time>
      </trkpt>
      <trkpt lat="42.77484" lon="0.20771">
        <ele>1697</ele>
        <time>2015-01-03T10:26:28.490Z</time>
      </trkpt>
      <trkpt lat="42.7749" lon="0.20783">
        <ele>1699</ele>
        <time>2015-01-03T10:26:36.490Z</time>
      </trkpt>
      <trkpt lat="42.77493" lon="0.20796">
        <ele>1702</ele>
        <time>2015-01-03T10:26:46.490Z</time>
      </trkpt>
      <trkpt lat="42.77498" lon="0.2081">
        <ele>1704</ele>
        <time>2015-01-03T10:26:56.490Z</time>
      </trkpt>
      <trkpt lat="42.77501" lon="0.20824">
        <ele>1705</ele>
        <time>2015-01-03T10:27:06.490Z</time>
      </trkpt>
      <trkpt lat="42.77505" lon="0.20838">
        <ele>1707</ele>
        <time>2015-01-03T10:27:15.490Z</time>
      </trkpt>
      <trkpt lat="42.77508" lon="0.2085">
        <ele>1708</ele>
        <time>2015-01-03T10:27:23.490Z</time>
      </trkpt>
      <trkpt lat="42.77509" lon="0.20864">
        <ele>1710</ele>
        <time>2015-01-03T10:27:32.490Z</time>
      </trkpt>
      <trkpt lat="42.7751" lon="0.20879">
        <ele>1710.3399936</ele>
        <time>2015-01-03T10:27:40.490Z</time>
      </trkpt>
      <trkpt lat="42.77512" lon="0.20893">
        <ele>1711</ele>
        <time>2015-01-03T10:27:49.490Z</time>
      </trkpt>
      <trkpt lat="42.77514" lon="0.20906">
        <ele>1712</ele>
        <time>2015-01-03T10:27:57.490Z</time>
      </trkpt>
      <trkpt lat="42.77512" lon="0.2092">
        <ele>1714</ele>
        <time>2015-01-03T10:28:05.490Z</time>
      </trkpt>
      <trkpt lat="42.77509" lon="0.20933">
        <ele>1716</ele>
        <time>2015-01-03T10:28:15.490Z</time>
      </trkpt>
      <trkpt lat="42.77505" lon="0.20945">
        <ele>1717</ele>
        <time>2015-01-03T10:28:23.490Z</time>
      </trkpt>
      <trkpt lat="42.77501" lon="0.20958">
        <ele>1719</ele>
        <time>2015-01-03T10:28:32.490Z</time>
      </trkpt>
      <trkpt lat="42.77497" lon="0.2097">
        <ele>1721</ele>
        <time>2015-01-03T10:28:41.490Z</time>
      </trkpt>
      <trkpt lat="42.77497" lon="0.20985">
        <ele>1721.3399936</ele>
        <time>2015-01-03T10:28:50.490Z</time>
      </trkpt>
      <trkpt lat="42.77503" lon="0.20995">
        <ele>1722</ele>
        <time>2015-01-03T10:28:57.490Z</time>
      </trkpt>
      <trkpt lat="42.77512" lon="0.21002">
        <ele>1724</ele>
        <time>2015-01-03T10:29:06.490Z</time>
      </trkpt>
      <trkpt lat="42.77519" lon="0.21012">
        <ele>1724</ele>
        <time>2015-01-03T10:29:16.490Z</time>
      </trkpt>
      <trkpt lat="42.77525" lon="0.21025">
        <ele>1726</ele>
        <time>2015-01-03T10:29:26.490Z</time>
      </trkpt>
      <trkpt lat="42.77526" lon="0.21039">
        <ele>1728</ele>
        <time>2015-01-03T10:29:37.490Z</time>
      </trkpt>
      <trkpt lat="42.77528" lon="0.21053">
        <ele>1729</ele>
        <time>2015-01-03T10:29:47.490Z</time>
      </trkpt>
      <trkpt lat="42.77529" lon="0.21068">
        <ele>1730</ele>
        <time>2015-01-03T10:29:58.490Z</time>
      </trkpt>
      <trkpt lat="42.7753" lon="0.21083">
        <ele>1732</ele>
        <time>2015-01-03T10:30:09.490Z</time>
      </trkpt>
      <trkpt lat="42.7753" lon="0.21097">
        <ele>1733</ele>
        <time>2015-01-03T10:30:19.490Z</time>
      </trkpt>
      <trkpt lat="42.7753" lon="0.21111">
        <ele>1735</ele>
        <time>2015-01-03T10:30:29.490Z</time>
      </trkpt>
      <trkpt lat="42.77534" lon="0.21124">
        <ele>1737</ele>
        <time>2015-01-03T10:30:37.490Z</time>
      </trkpt>
      <trkpt lat="42.77534" lon="0.21139">
        <ele>1739</ele>
        <time>2015-01-03T10:30:46.490Z</time>
      </trkpt>
      <trkpt lat="42.77533" lon="0.21153">
        <ele>1741</ele>
        <time>2015-01-03T10:30:55.490Z</time>
      </trkpt>
      <trkpt lat="42.77533" lon="0.21167">
        <ele>1742</ele>
        <time>2015-01-03T10:31:04.490Z</time>
      </trkpt>
      <trkpt lat="42.7753" lon="0.21181">
        <ele>1744</ele>
        <time>2015-01-03T10:31:13.490Z</time>
      </trkpt>
      <trkpt lat="42.77528" lon="0.21195">
        <ele>1746</ele>
        <time>2015-01-03T10:31:22.500Z</time>
      </trkpt>
      <trkpt lat="42.77528" lon="0.21207">
        <ele>1746.6799872</ele>
        <time>2015-01-03T10:31:30.490Z</time>
      </trkpt>
      <trkpt lat="42.77529" lon="0.21221">
        <ele>1748</ele>
        <time>2015-01-03T10:31:37.490Z</time>
      </trkpt>
      <trkpt lat="42.77531" lon="0.21233">
        <ele>1750</ele>
        <time>2015-01-03T10:31:44.490Z</time>
      </trkpt>
      <trkpt lat="42.77534" lon="0.21244">
        <ele>1750.0099968</ele>
        <time>2015-01-03T10:31:50.160Z</time>
      </trkpt>
      <trkpt lat="42.77538" lon="0.21256">
        <ele>1751</ele>
        <time>2015-01-03T10:31:57.490Z</time>
      </trkpt>
      <trkpt lat="42.77537" lon="0.21268">
        <ele>1753</ele>
        <time>2015-01-03T10:32:06.490Z</time>
      </trkpt>
      <trkpt lat="42.77536" lon="0.21278">
        <ele>1754</ele>
        <time>2015-01-03T10:32:16.530Z</time>
      </trkpt>
      <trkpt lat="42.77531" lon="0.21287">
        <ele>1755</ele>
        <time>2015-01-03T10:32:26.490Z</time>
      </trkpt>
      <trkpt lat="42.77529" lon="0.21299">
        <ele>1757</ele>
        <time>2015-01-03T10:32:39.490Z</time>
      </trkpt>
      <trkpt lat="42.77524" lon="0.2131">
        <ele>1758.6799872</ele>
        <time>2015-01-03T10:32:50.490Z</time>
      </trkpt>
      <trkpt lat="42.77519" lon="0.21321">
        <ele>1760.6999808</ele>
        <time>2015-01-03T10:33:00.500Z</time>
      </trkpt>
      <trkpt lat="42.77513" lon="0.2133">
        <ele>1762.6799872</ele>
        <time>2015-01-03T10:33:10.490Z</time>
      </trkpt>
      <trkpt lat="42.77506" lon="0.21338">
        <ele>1764.6666580472</ele>
        <time>2015-01-03T10:33:20.490Z</time>
      </trkpt>
      <trkpt lat="42.77498" lon="0.21342">
        <ele>1768</ele>
        <time>2015-01-03T10:33:32.490Z</time>
      </trkpt>
      <trkpt lat="42.7749" lon="0.21346">
        <ele>1769</ele>
        <time>2015-01-03T10:33:43.490Z</time>
      </trkpt>
      <trkpt lat="42.77481" lon="0.21347">
        <ele>1771</ele>
        <time>2015-01-03T10:33:52.490Z</time>
      </trkpt>
      <trkpt lat="42.77473" lon="0.21353">
        <ele>1775</ele>
        <time>2015-01-03T10:34:13.490Z</time>
      </trkpt>
      <trkpt lat="42.77464" lon="0.21356">
        <ele>1777</ele>
        <time>2015-01-03T10:34:22.490Z</time>
      </trkpt>
      <trkpt lat="42.77457" lon="0.2136">
        <ele>1779</ele>
        <time>2015-01-03T10:34:38.490Z</time>
      </trkpt>
      <trkpt lat="42.77449" lon="0.21366">
        <ele>1781</ele>
        <time>2015-01-03T10:34:49.490Z</time>
      </trkpt>
      <trkpt lat="42.7744" lon="0.21367">
        <ele>1783.3599744</ele>
        <time>2015-01-03T10:35:00.490Z</time>
      </trkpt>
      <trkpt lat="42.77433" lon="0.21372">
        <ele>1788</ele>
        <time>2015-01-03T10:35:13.690Z</time>
      </trkpt>
      <trkpt lat="42.77425" lon="0.21374">
        <ele>1790</ele>
        <time>2015-01-03T10:35:26.490Z</time>
      </trkpt>
      <trkpt lat="42.77417" lon="0.2138">
        <ele>1794.3399936</ele>
        <time>2015-01-03T10:35:40.490Z</time>
      </trkpt>
      <trkpt lat="42.7741" lon="0.21385">
        <ele>1796</ele>
        <time>2015-01-03T10:35:53.490Z</time>
      </trkpt>
      <trkpt lat="42.77413" lon="0.21397">
        <ele>1798</ele>
        <time>2015-01-03T10:36:03.490Z</time>
      </trkpt>
      <trkpt lat="42.77409" lon="0.21406">
        <ele>1799</ele>
        <time>2015-01-03T10:36:13.510Z</time>
      </trkpt>
      <trkpt lat="42.77401" lon="0.21406">
        <ele>1801</ele>
        <time>2015-01-03T10:36:22.490Z</time>
      </trkpt>
      <trkpt lat="42.77392" lon="0.21406">
        <ele>1803</ele>
        <time>2015-01-03T10:36:34.520Z</time>
      </trkpt>
      <trkpt lat="42.77389" lon="0.21418">
        <ele>1805</ele>
        <time>2015-01-03T10:36:48.490Z</time>
      </trkpt>
      <trkpt lat="42.77384" lon="0.21429">
        <ele>1807</ele>
        <time>2015-01-03T10:36:59.490Z</time>
      </trkpt>
      <trkpt lat="42.77386" lon="0.21441">
        <ele>1812</ele>
        <time>2015-01-03T10:37:11.490Z</time>
      </trkpt>
      <trkpt lat="42.77382" lon="0.21454">
        <ele>1815</ele>
        <time>2015-01-03T10:37:32.490Z</time>
      </trkpt>
      <trkpt lat="42.77373" lon="0.21454">
        <ele>1815.6799872</ele>
        <time>2015-01-03T10:37:40.490Z</time>
      </trkpt>
      <trkpt lat="42.77363" lon="0.21456">
        <ele>1817.3399936</ele>
        <time>2015-01-03T10:37:50.490Z</time>
      </trkpt>
      <trkpt lat="42.77355" lon="0.21459">
        <ele>1820</ele>
        <time>2015-01-03T10:38:01.490Z</time>
      </trkpt>
      <trkpt lat="42.77346" lon="0.2146">
        <ele>1822</ele>
        <time>2015-01-03T10:38:12.490Z</time>
      </trkpt>
      <trkpt lat="42.7734" lon="0.21467">
        <ele>1824</ele>
        <time>2015-01-03T10:38:26.490Z</time>
      </trkpt>
      <trkpt lat="42.77339" lon="0.21478">
        <ele>1826</ele>
        <time>2015-01-03T10:38:37.490Z</time>
      </trkpt>
      <trkpt lat="42.77339" lon="0.2149">
        <ele>1828</ele>
        <time>2015-01-03T10:38:48.490Z</time>
      </trkpt>
      <trkpt lat="42.77335" lon="0.215">
        <ele>1832.6799872</ele>
        <time>2015-01-03T10:39:00.490Z</time>
      </trkpt>
      <trkpt lat="42.77326" lon="0.21502">
        <ele>1836</ele>
        <time>2015-01-03T10:39:15.490Z</time>
      </trkpt>
      <trkpt lat="42.77318" lon="0.21499">
        <ele>1838</ele>
        <time>2015-01-03T10:39:26.490Z</time>
      </trkpt>
      <trkpt lat="42.77309" lon="0.21501">
        <ele>1839.6666583006</ele>
        <time>2015-01-03T10:39:40.490Z</time>
      </trkpt>
      <trkpt lat="42.77302" lon="0.21507">
        <ele>1842.0199808</ele>
        <time>2015-01-03T10:39:50.490Z</time>
      </trkpt>
      <trkpt lat="42.77299" lon="0.21518">
        <ele>1846</ele>
        <time>2015-01-03T10:40:03.490Z</time>
      </trkpt>
      <trkpt lat="42.77291" lon="0.21524">
        <ele>1848</ele>
        <time>2015-01-03T10:40:16.490Z</time>
      </trkpt>
      <trkpt lat="42.77283" lon="0.21527">
        <ele>1851</ele>
        <time>2015-01-03T10:40:24.490Z</time>
      </trkpt>
      <trkpt lat="42.77276" lon="0.21527">
        <ele>1852</ele>
        <time>2015-01-03T10:40:32.490Z</time>
      </trkpt>
      <trkpt lat="42.77269" lon="0.21526">
        <ele>1855</ele>
        <time>2015-01-03T10:40:41.490Z</time>
      </trkpt>
      <trkpt lat="42.7726" lon="0.21527">
        <ele>1861</ele>
        <time>2015-01-03T10:41:01.490Z</time>
      </trkpt>
      <trkpt lat="42.77258" lon="0.21537">
        <ele>1862</ele>
        <time>2015-01-03T10:41:11.490Z</time>
      </trkpt>
      <trkpt lat="42.77256" lon="0.2155">
        <ele>1864</ele>
        <time>2015-01-03T10:41:27.490Z</time>
      </trkpt>
      <trkpt lat="42.77259" lon="0.21562">
        <ele>1867</ele>
        <time>2015-01-03T10:41:39.490Z</time>
      </trkpt>
      <trkpt lat="42.77261" lon="0.21574">
        <ele>1872</ele>
        <time>2015-01-03T10:41:53.500Z</time>
      </trkpt>
      <trkpt lat="42.77268" lon="0.21583">
        <ele>1874</ele>
        <time>2015-01-03T10:42:02.490Z</time>
      </trkpt>
      <trkpt lat="42.77259" lon="0.21584">
        <ele>1875</ele>
        <time>2015-01-03T10:42:15.490Z</time>
      </trkpt>
      <trkpt lat="42.7725" lon="0.21586">
        <ele>1877</ele>
        <time>2015-01-03T10:42:26.490Z</time>
      </trkpt>
      <trkpt lat="42.77244" lon="0.21596">
        <ele>1880</ele>
        <time>2015-01-03T10:42:42.490Z</time>
      </trkpt>
      <trkpt lat="42.7725" lon="0.21607">
        <ele>1884</ele>
        <time>2015-01-03T10:42:58.490Z</time>
      </trkpt>
      <trkpt lat="42.77258" lon="0.21614">
        <ele>1885</ele>
        <time>2015-01-03T10:43:07.490Z</time>
      </trkpt>
      <trkpt lat="42.77263" lon="0.21625">
        <ele>1886.6799872</ele>
        <time>2015-01-03T10:43:20.490Z</time>
      </trkpt>
      <trkpt lat="42.77269" lon="0.21635">
        <ele>1890</ele>
        <time>2015-01-03T10:43:31.490Z</time>
      </trkpt>
      <trkpt lat="42.77274" lon="0.21645">
        <ele>1890.6799872</ele>
        <time>2015-01-03T10:43:40.490Z</time>
      </trkpt>
      <trkpt lat="42.77273" lon="0.21657">
        <ele>1895</ele>
        <time>2015-01-03T10:43:53.490Z</time>
      </trkpt>
      <trkpt lat="42.77271" lon="0.21669">
        <ele>1896</ele>
        <time>2015-01-03T10:44:05.510Z</time>
      </trkpt>
      <trkpt lat="42.77265" lon="0.21678">
        <ele>1898</ele>
        <time>2015-01-03T10:44:15.490Z</time>
      </trkpt>
      <trkpt lat="42.77264" lon="0.21689">
        <ele>1900</ele>
        <time>2015-01-03T10:44:23.510Z</time>
      </trkpt>
      <trkpt lat="42.77266" lon="0.217">
        <ele>1900.3399936</ele>
        <time>2015-01-03T10:44:30.490Z</time>
      </trkpt>
      <trkpt lat="42.77267" lon="0.21712">
        <ele>1901</ele>
        <time>2015-01-03T10:44:39.490Z</time>
      </trkpt>
      <trkpt lat="42.77266" lon="0.21724">
        <ele>1902.6799872</ele>
        <time>2015-01-03T10:44:50.490Z</time>
      </trkpt>
      <trkpt lat="42.77264" lon="0.21736">
        <ele>1907</ele>
        <time>2015-01-03T10:45:02.490Z</time>
      </trkpt>
      <trkpt lat="42.77265" lon="0.21748">
        <ele>1909</ele>
        <time>2015-01-03T10:45:15.490Z</time>
      </trkpt>
      <trkpt lat="42.77269" lon="0.21759">
        <ele>1914</ele>
        <time>2015-01-03T10:45:27.490Z</time>
      </trkpt>
      <trkpt lat="42.7727" lon="0.2177">
        <ele>1917</ele>
        <time>2015-01-03T10:45:36.490Z</time>
      </trkpt>
      <trkpt lat="42.77266" lon="0.21777">
        <ele>1917</ele>
        <time>2015-01-03T10:45:45.690Z</time>
      </trkpt>
      <trkpt lat="42.77263" lon="0.21786">
        <ele>1919</ele>
        <time>2015-01-03T10:45:53.510Z</time>
      </trkpt>
      <trkpt lat="42.77257" lon="0.21794">
        <ele>1922.3399936</ele>
        <time>2015-01-03T10:46:05.490Z</time>
      </trkpt>
      <trkpt lat="42.7725" lon="0.21797">
        <ele>1925.3399936</ele>
        <time>2015-01-03T10:46:15.490Z</time>
      </trkpt>
      <trkpt lat="42.77243" lon="0.21802">
        <ele>1927</ele>
        <time>2015-01-03T10:46:26.490Z</time>
      </trkpt>
      <trkpt lat="42.77237" lon="0.21809">
        <ele>1929</ele>
        <time>2015-01-03T10:46:36.490Z</time>
      </trkpt>
      <trkpt lat="42.77229" lon="0.21815">
        <ele>1930</ele>
        <time>2015-01-03T10:46:49.490Z</time>
      </trkpt>
      <trkpt lat="42.7722" lon="0.2182">
        <ele>1935</ele>
        <time>2015-01-03T10:47:03.490Z</time>
      </trkpt>
      <trkpt lat="42.77212" lon="0.21823">
        <ele>1938</ele>
        <time>2015-01-03T10:47:14.490Z</time>
      </trkpt>
      <trkpt lat="42.77205" lon="0.21827">
        <ele>1942</ele>
        <time>2015-01-03T10:47:27.490Z</time>
      </trkpt>
      <trkpt lat="42.77196" lon="0.21833">
        <ele>1945.3399936</ele>
        <time>2015-01-03T10:47:50.490Z</time>
      </trkpt>
      <trkpt lat="42.77199" lon="0.21846">
        <ele>1948</ele>
        <time>2015-01-03T10:48:03.490Z</time>
      </trkpt>
      <trkpt lat="42.7719" lon="0.21851">
        <ele>1954</ele>
        <time>2015-01-03T10:48:31.490Z</time>
      </trkpt>
      <trkpt lat="42.77191" lon="0.21864">
        <ele>1960</ele>
        <time>2015-01-03T10:49:01.490Z</time>
      </trkpt>
      <trkpt lat="42.7718" lon="0.21864">
        <ele>1963</ele>
        <time>2015-01-03T10:49:24.490Z</time>
      </trkpt>
      <trkpt lat="42.7717" lon="0.21864">
        <ele>1966.6799872</ele>
        <time>2015-01-03T10:49:40.490Z</time>
      </trkpt>
      <trkpt lat="42.77172" lon="0.21878">
        <ele>1970</ele>
        <time>2015-01-03T10:49:56.490Z</time>
      </trkpt>
      <trkpt lat="42.77164" lon="0.21883">
        <ele>1976</ele>
        <time>2015-01-03T10:50:19.490Z</time>
      </trkpt>
      <trkpt lat="42.77155" lon="0.2188">
        <ele>1978</ele>
        <time>2015-01-03T10:50:31.490Z</time>
      </trkpt>
      <trkpt lat="42.77156" lon="0.21892">
        <ele>1981</ele>
        <time>2015-01-03T10:50:49.490Z</time>
      </trkpt>
      <trkpt lat="42.77161" lon="0.21904">
        <ele>1984</ele>
        <time>2015-01-03T10:51:02.490Z</time>
      </trkpt>
      <trkpt lat="42.7716" lon="0.21916">
        <ele>1991</ele>
        <time>2015-01-03T10:51:46.490Z</time>
      </trkpt>
      <trkpt lat="42.77167" lon="0.21924">
        <ele>1993.6799872</ele>
        <time>2015-01-03T10:51:55.490Z</time>
      </trkpt>
      <trkpt lat="42.7716" lon="0.21933">
        <ele>1999</ele>
        <time>2015-01-03T10:52:23.490Z</time>
      </trkpt>
      <trkpt lat="42.77161" lon="0.21946">
        <ele>2002</ele>
        <time>2015-01-03T10:52:47.490Z</time>
      </trkpt>
      <trkpt lat="42.77153" lon="0.21947">
        <ele>2009</ele>
        <time>2015-01-03T10:53:14.490Z</time>
      </trkpt>
      <trkpt lat="42.77145" lon="0.21945">
        <ele>2010</ele>
        <time>2015-01-03T10:53:26.490Z</time>
      </trkpt>
      <trkpt lat="42.77138" lon="0.21942">
        <ele>2013.3333290236</ele>
        <time>2015-01-03T10:53:35.490Z</time>
      </trkpt>
      <trkpt lat="42.7713" lon="0.21941">
        <ele>2015</ele>
        <time>2015-01-03T10:53:44.490Z</time>
      </trkpt>
      <trkpt lat="42.77123" lon="0.2194">
        <ele>2017</ele>
        <time>2015-01-03T10:53:53.490Z</time>
      </trkpt>
      <trkpt lat="42.77116" lon="0.21939">
        <ele>2017.3399936</ele>
        <time>2015-01-03T10:54:00.490Z</time>
      </trkpt>
      <trkpt lat="42.77109" lon="0.21937">
        <ele>2018</ele>
        <time>2015-01-03T10:54:06.490Z</time>
      </trkpt>
      <trkpt lat="42.77101" lon="0.21938">
        <ele>2022</ele>
        <time>2015-01-03T10:54:16.490Z</time>
      </trkpt>
      <trkpt lat="42.77094" lon="0.2194">
        <ele>2025</ele>
        <time>2015-01-03T10:54:29.490Z</time>
      </trkpt>
      <trkpt lat="42.77085" lon="0.21941">
        <ele>2027</ele>
        <time>2015-01-03T10:54:42.490Z</time>
      </trkpt>
      <trkpt lat="42.77078" lon="0.21939">
        <ele>2029</ele>
        <time>2015-01-03T10:54:52.490Z</time>
      </trkpt>
      <trkpt lat="42.7707" lon="0.21942">
        <ele>2030</ele>
        <time>2015-01-03T10:55:04.490Z</time>
      </trkpt>
      <trkpt lat="42.77062" lon="0.21942">
        <ele>2031</ele>
        <time>2015-01-03T10:55:14.490Z</time>
      </trkpt>
      <trkpt lat="42.77067" lon="0.21952">
        <ele>2034</ele>
        <time>2015-01-03T10:55:34.530Z</time>
      </trkpt>
      <trkpt lat="42.7706" lon="0.21953">
        <ele>2038</ele>
        <time>2015-01-03T10:55:48.490Z</time>
      </trkpt>
      <trkpt lat="42.77052" lon="0.21953">
        <ele>2038</ele>
        <time>2015-01-03T10:55:59.490Z</time>
      </trkpt>
      <trkpt lat="42.77045" lon="0.2195">
        <ele>2039</ele>
        <time>2015-01-03T10:56:09.690Z</time>
      </trkpt>
      <trkpt lat="42.77037" lon="0.21951">
        <ele>2042</ele>
        <time>2015-01-03T10:56:19.490Z</time>
      </trkpt>
      <trkpt lat="42.77031" lon="0.21951">
        <ele>2044</ele>
        <time>2015-01-03T10:56:27.490Z</time>
      </trkpt>
      <trkpt lat="42.77023" lon="0.21952">
        <ele>2047</ele>
        <time>2015-01-03T10:56:37.490Z</time>
      </trkpt>
      <trkpt lat="42.77017" lon="0.21951">
        <ele>2048</ele>
        <time>2015-01-03T10:56:47.490Z</time>
      </trkpt>
      <trkpt lat="42.77008" lon="0.21951">
        <ele>2049</ele>
        <time>2015-01-03T10:56:58.490Z</time>
      </trkpt>
      <trkpt lat="42.77" lon="0.21953">
        <ele>2050</ele>
        <time>2015-01-03T10:57:09.490Z</time>
      </trkpt>
      <trkpt lat="42.76992" lon="0.21958">
        <ele>2053</ele>
        <time>2015-01-03T10:57:19.490Z</time>
      </trkpt>
      <trkpt lat="42.76985" lon="0.21956">
        <ele>2054</ele>
        <time>2015-01-03T10:57:29.490Z</time>
      </trkpt>
      <trkpt lat="42.76986" lon="0.21967">
        <ele>2058</ele>
        <time>2015-01-03T10:57:55.490Z</time>
      </trkpt>
      <trkpt lat="42.76992" lon="0.21974">
        <ele>2061</ele>
        <time>2015-01-03T10:58:08.490Z</time>
      </trkpt>
      <trkpt lat="42.76995" lon="0.21984">
        <ele>2063</ele>
        <time>2015-01-03T10:58:28.510Z</time>
      </trkpt>
      <trkpt lat="42.76988" lon="0.21985">
        <ele>2066</ele>
        <time>2015-01-03T10:58:39.490Z</time>
      </trkpt>
      <trkpt lat="42.76981" lon="0.21987">
        <ele>2069</ele>
        <time>2015-01-03T10:58:49.490Z</time>
      </trkpt>
      <trkpt lat="42.76974" lon="0.21989">
        <ele>2069</ele>
        <time>2015-01-03T10:58:59.500Z</time>
      </trkpt>
      <trkpt lat="42.76967" lon="0.21992">
        <ele>2072</ele>
        <time>2015-01-03T10:59:07.490Z</time>
      </trkpt>
      <trkpt lat="42.76959" lon="0.21991">
        <ele>2073</ele>
        <time>2015-01-03T10:59:17.490Z</time>
      </trkpt>
      <trkpt lat="42.76964" lon="0.22">
        <ele>2077</ele>
        <time>2015-01-03T10:59:33.490Z</time>
      </trkpt>
      <trkpt lat="42.76973" lon="0.22004">
        <ele>2078</ele>
        <time>2015-01-03T10:59:44.490Z</time>
      </trkpt>
      <trkpt lat="42.7698" lon="0.2201">
        <ele>2080</ele>
        <time>2015-01-03T10:59:54.490Z</time>
      </trkpt>
      <trkpt lat="42.76973" lon="0.22016">
        <ele>2084</ele>
        <time>2015-01-03T11:00:19.490Z</time>
      </trkpt>
      <trkpt lat="42.76978" lon="0.22024">
        <ele>2087</ele>
        <time>2015-01-03T11:00:34.490Z</time>
      </trkpt>
      <trkpt lat="42.76986" lon="0.2203">
        <ele>2089</ele>
        <time>2015-01-03T11:00:45.490Z</time>
      </trkpt>
      <trkpt lat="42.76994" lon="0.22034">
        <ele>2091.3399936</ele>
        <time>2015-01-03T11:00:55.490Z</time>
      </trkpt>
      <trkpt lat="42.76986" lon="0.22039">
        <ele>2095</ele>
        <time>2015-01-03T11:01:18.490Z</time>
      </trkpt>
      <trkpt lat="42.76978" lon="0.22043">
        <ele>2097</ele>
        <time>2015-01-03T11:01:27.530Z</time>
      </trkpt>
      <trkpt lat="42.76971" lon="0.22045">
        <ele>2098</ele>
        <time>2015-01-03T11:01:38.490Z</time>
      </trkpt>
      <trkpt lat="42.76963" lon="0.22046">
        <ele>2099</ele>
        <time>2015-01-03T11:01:47.490Z</time>
      </trkpt>
      <trkpt lat="42.76969" lon="0.22055">
        <ele>2103</ele>
        <time>2015-01-03T11:02:15.490Z</time>
      </trkpt>
      <trkpt lat="42.76976" lon="0.22059">
        <ele>2106</ele>
        <time>2015-01-03T11:02:26.490Z</time>
      </trkpt>
      <trkpt lat="42.76984" lon="0.22061">
        <ele>2106</ele>
        <time>2015-01-03T11:02:37.490Z</time>
      </trkpt>
      <trkpt lat="42.76992" lon="0.22063">
        <ele>2108.3399936</ele>
        <time>2015-01-03T11:02:45.490Z</time>
      </trkpt>
      <trkpt lat="42.76999" lon="0.22065">
        <ele>2109</ele>
        <time>2015-01-03T11:03:01.490Z</time>
      </trkpt>
      <trkpt lat="42.76994" lon="0.22073">
        <ele>2113</ele>
        <time>2015-01-03T11:03:32.490Z</time>
      </trkpt>
      <trkpt lat="42.76988" lon="0.22077">
        <ele>2116</ele>
        <time>2015-01-03T11:03:42.490Z</time>
      </trkpt>
      <trkpt lat="42.76995" lon="0.22083">
        <ele>2119</ele>
        <time>2015-01-03T11:03:58.510Z</time>
      </trkpt>
      <trkpt lat="42.76987" lon="0.22084">
        <ele>2120.3399936</ele>
        <time>2015-01-03T11:04:10.490Z</time>
      </trkpt>
      <trkpt lat="42.7698" lon="0.22085">
        <ele>2121.3399936</ele>
        <time>2015-01-03T11:04:20.490Z</time>
      </trkpt>
      <trkpt lat="42.76984" lon="0.22094">
        <ele>2124.3399936</ele>
        <time>2015-01-03T11:04:35.490Z</time>
      </trkpt>
      <trkpt lat="42.76991" lon="0.22101">
        <ele>2126.6799872</ele>
        <time>2015-01-03T11:04:45.490Z</time>
      </trkpt>
      <trkpt lat="42.76997" lon="0.22107">
        <ele>2129</ele>
        <time>2015-01-03T11:04:55.490Z</time>
      </trkpt>
      <trkpt lat="42.77003" lon="0.22115">
        <ele>2131.3500032</ele>
        <time>2015-01-03T11:05:05.500Z</time>
      </trkpt>
      <trkpt lat="42.77008" lon="0.22122">
        <ele>2132</ele>
        <time>2015-01-03T11:05:15.490Z</time>
      </trkpt>
      <trkpt lat="42.77014" lon="0.22131">
        <ele>2133</ele>
        <time>2015-01-03T11:05:23.510Z</time>
      </trkpt>
      <trkpt lat="42.77019" lon="0.22139">
        <ele>2135</ele>
        <time>2015-01-03T11:05:33.490Z</time>
      </trkpt>
      <trkpt lat="42.77012" lon="0.22141">
        <ele>2136</ele>
        <time>2015-01-03T11:05:47.490Z</time>
      </trkpt>
      <trkpt lat="42.77006" lon="0.2214">
        <ele>2140</ele>
        <time>2015-01-03T11:05:57.490Z</time>
      </trkpt>
      <trkpt lat="42.76999" lon="0.2214">
        <ele>2141.3399936</ele>
        <time>2015-01-03T11:06:05.490Z</time>
      </trkpt>
      <trkpt lat="42.76993" lon="0.2214">
        <ele>2143</ele>
        <time>2015-01-03T11:06:14.490Z</time>
      </trkpt>
      <trkpt lat="42.76986" lon="0.22141">
        <ele>2145</ele>
        <time>2015-01-03T11:06:22.490Z</time>
      </trkpt>
      <trkpt lat="42.7698" lon="0.2214">
        <ele>2145</ele>
        <time>2015-01-03T11:06:32.490Z</time>
      </trkpt>
      <trkpt lat="42.76982" lon="0.2215">
        <ele>2149</ele>
        <time>2015-01-03T11:06:49.690Z</time>
      </trkpt>
      <trkpt lat="42.76987" lon="0.22157">
        <ele>2152</ele>
        <time>2015-01-03T11:06:58.690Z</time>
      </trkpt>
      <trkpt lat="42.7699" lon="0.22164">
        <ele>2153</ele>
        <time>2015-01-03T11:07:06.690Z</time>
      </trkpt>
      <trkpt lat="42.76994" lon="0.22172">
        <ele>2155.5399936</ele>
        <time>2015-01-03T11:07:15.690Z</time>
      </trkpt>
      <trkpt lat="42.76999" lon="0.22179">
        <ele>2157</ele>
        <time>2015-01-03T11:07:23.690Z</time>
      </trkpt>
      <trkpt lat="42.77003" lon="0.22186">
        <ele>2157</ele>
        <time>2015-01-03T11:07:30.690Z</time>
      </trkpt>
      <trkpt lat="42.77006" lon="0.22192">
        <ele>2157</ele>
        <time>2015-01-03T11:07:37.690Z</time>
      </trkpt>
      <trkpt lat="42.77009" lon="0.22198">
        <ele>2159</ele>
        <time>2015-01-03T11:07:44.490Z</time>
      </trkpt>
      <trkpt lat="42.77013" lon="0.22206">
        <ele>2163</ele>
        <time>2015-01-03T11:07:54.490Z</time>
      </trkpt>
      <trkpt lat="42.77017" lon="0.22213">
        <ele>2163</ele>
        <time>2015-01-03T11:08:02.490Z</time>
      </trkpt>
      <trkpt lat="42.77021" lon="0.22221">
        <ele>2165</ele>
        <time>2015-01-03T11:08:12.490Z</time>
      </trkpt>
      <trkpt lat="42.77016" lon="0.22223">
        <ele>2170</ele>
        <time>2015-01-03T11:08:29.490Z</time>
      </trkpt>
      <trkpt lat="42.7701" lon="0.22221">
        <ele>2172</ele>
        <time>2015-01-03T11:08:36.590Z</time>
      </trkpt>
      <trkpt lat="42.77004" lon="0.22219">
        <ele>2172.3399936</ele>
        <time>2015-01-03T11:08:45.490Z</time>
      </trkpt>
      <trkpt lat="42.76998" lon="0.22219">
        <ele>2173</ele>
        <time>2015-01-03T11:08:52.490Z</time>
      </trkpt>
      <trkpt lat="42.76991" lon="0.22217">
        <ele>2176</ele>
        <time>2015-01-03T11:09:02.490Z</time>
      </trkpt>
      <trkpt lat="42.76985" lon="0.22216">
        <ele>2176</ele>
        <time>2015-01-03T11:09:09.490Z</time>
      </trkpt>
      <trkpt lat="42.76978" lon="0.22215">
        <ele>2177</ele>
        <time>2015-01-03T11:09:19.490Z</time>
      </trkpt>
      <trkpt lat="42.76971" lon="0.22214">
        <ele>2178</ele>
        <time>2015-01-03T11:09:29.520Z</time>
      </trkpt>
      <trkpt lat="42.76964" lon="0.22215">
        <ele>2182</ele>
        <time>2015-01-03T11:09:37.490Z</time>
      </trkpt>
      <trkpt lat="42.76957" lon="0.22212">
        <ele>2183</ele>
        <time>2015-01-03T11:09:46.490Z</time>
      </trkpt>
      <trkpt lat="42.7695" lon="0.22211">
        <ele>2185</ele>
        <time>2015-01-03T11:09:54.490Z</time>
      </trkpt>
      <trkpt lat="42.76943" lon="0.2221">
        <ele>2185</ele>
        <time>2015-01-03T11:10:02.490Z</time>
      </trkpt>
      <trkpt lat="42.76936" lon="0.22209">
        <ele>2185.6799872</ele>
        <time>2015-01-03T11:10:10.490Z</time>
      </trkpt>
      <trkpt lat="42.76938" lon="0.22219">
        <ele>2191</ele>
        <time>2015-01-03T11:10:37.490Z</time>
      </trkpt>
      <trkpt lat="42.76942" lon="0.22229">
        <ele>2194</ele>
        <time>2015-01-03T11:10:47.490Z</time>
      </trkpt>
      <trkpt lat="42.76948" lon="0.22237">
        <ele>2196</ele>
        <time>2015-01-03T11:10:57.490Z</time>
      </trkpt>
      <trkpt lat="42.76954" lon="0.22244">
        <ele>2196</ele>
        <time>2015-01-03T11:11:07.490Z</time>
      </trkpt>
      <trkpt lat="42.7696" lon="0.22252">
        <ele>2199</ele>
        <time>2015-01-03T11:11:19.490Z</time>
      </trkpt>
      <trkpt lat="42.76965" lon="0.22262">
        <ele>2201.36</ele>
        <time>2015-01-03T11:11:30.510Z</time>
      </trkpt>
      <trkpt lat="42.76969" lon="0.2227">
        <ele>2203</ele>
        <time>2015-01-03T11:11:38.490Z</time>
      </trkpt>
      <trkpt lat="42.76974" lon="0.22278">
        <ele>2205</ele>
        <time>2015-01-03T11:11:48.520Z</time>
      </trkpt>
      <trkpt lat="42.76978" lon="0.22286">
        <ele>2207</ele>
        <time>2015-01-03T11:11:59.490Z</time>
      </trkpt>
      <trkpt lat="42.76982" lon="0.22296">
        <ele>2209.6799872</ele>
        <time>2015-01-03T11:12:10.490Z</time>
      </trkpt>
      <trkpt lat="42.76987" lon="0.22303">
        <ele>2214</ele>
        <time>2015-01-03T11:12:21.490Z</time>
      </trkpt>
      <trkpt lat="42.76991" lon="0.22313">
        <ele>2216</ele>
        <time>2015-01-03T11:12:31.490Z</time>
      </trkpt>
      <trkpt lat="42.76984" lon="0.22314">
        <ele>2218</ele>
        <time>2015-01-03T11:12:49.490Z</time>
      </trkpt>
      <trkpt lat="42.76978" lon="0.22313">
        <ele>2221.3399936</ele>
        <time>2015-01-03T11:13:00.490Z</time>
      </trkpt>
      <trkpt lat="42.76972" lon="0.22311">
        <ele>2223</ele>
        <time>2015-01-03T11:13:08.490Z</time>
      </trkpt>
      <trkpt lat="42.76966" lon="0.2231">
        <ele>2225</ele>
        <time>2015-01-03T11:13:18.490Z</time>
      </trkpt>
      <trkpt lat="42.76965" lon="0.22321">
        <ele>2228</ele>
        <time>2015-01-03T11:13:42.490Z</time>
      </trkpt>
      <trkpt lat="42.76968" lon="0.22331">
        <ele>2230</ele>
        <time>2015-01-03T11:13:51.490Z</time>
      </trkpt>
      <trkpt lat="42.76962" lon="0.22327">
        <ele>2231</ele>
        <time>2015-01-03T11:14:00.490Z</time>
      </trkpt>
      <trkpt lat="42.76956" lon="0.22324">
        <ele>2231</ele>
        <time>2015-01-03T11:14:07.510Z</time>
      </trkpt>
      <trkpt lat="42.7695" lon="0.22322">
        <ele>2233</ele>
        <time>2015-01-03T11:14:16.490Z</time>
      </trkpt>
      <trkpt lat="42.76943" lon="0.22321">
        <ele>2234</ele>
        <time>2015-01-03T11:14:25.510Z</time>
      </trkpt>
      <trkpt lat="42.76936" lon="0.2232">
        <ele>2236</ele>
        <time>2015-01-03T11:14:34.490Z</time>
      </trkpt>
      <trkpt lat="42.76938" lon="0.22331">
        <ele>2240</ele>
        <time>2015-01-03T11:14:53.490Z</time>
      </trkpt>
      <trkpt lat="42.76941" lon="0.22341">
        <ele>2244</ele>
        <time>2015-01-03T11:15:05.490Z</time>
      </trkpt>
      <trkpt lat="42.76945" lon="0.22349">
        <ele>2245</ele>
        <time>2015-01-03T11:15:15.490Z</time>
      </trkpt>
      <trkpt lat="42.76939" lon="0.22351">
        <ele>2249</ele>
        <time>2015-01-03T11:15:31.490Z</time>
      </trkpt>
      <trkpt lat="42.76934" lon="0.22359">
        <ele>2255</ele>
        <time>2015-01-03T11:16:01.490Z</time>
      </trkpt>
      <trkpt lat="42.76933" lon="0.22368">
        <ele>2256</ele>
        <time>2015-01-03T11:16:17.490Z</time>
      </trkpt>
      <trkpt lat="42.76939" lon="0.22373">
        <ele>2258</ele>
        <time>2015-01-03T11:22:49.490Z</time>
      </trkpt>
      <trkpt lat="42.76933" lon="0.22366">
        <ele>2257</ele>
        <time>2015-01-03T11:25:59.590Z</time>
      </trkpt>
      <trkpt lat="42.76929" lon="0.22355">
        <ele>2257</ele>
        <time>2015-01-03T11:30:51.490Z</time>
      </trkpt>
      <trkpt lat="42.76926" lon="0.22345">
        <ele>2256</ele>
        <time>2015-01-03T11:30:57.590Z</time>
      </trkpt>
      <trkpt lat="42.76919" lon="0.22336">
        <ele>2253</ele>
        <time>2015-01-03T11:31:01.600Z</time>
      </trkpt>
      <trkpt lat="42.76913" lon="0.2233">
        <ele>2252.56</ele>
        <time>2015-01-03T11:31:05.590Z</time>
      </trkpt>
      <trkpt lat="42.7691" lon="0.2232">
        <ele>2251</ele>
        <time>2015-01-03T11:31:25.590Z</time>
      </trkpt>
      <trkpt lat="42.76914" lon="0.2231">
        <ele>2251</ele>
        <time>2015-01-03T11:31:27.590Z</time>
      </trkpt>
      <trkpt lat="42.76917" lon="0.22299">
        <ele>2251</ele>
        <time>2015-01-03T11:31:29.590Z</time>
      </trkpt>
      <trkpt lat="42.76918" lon="0.22285">
        <ele>2238.643601247</ele>
        <time>2015-01-03T11:31:31.490Z</time>
      </trkpt>
      <trkpt lat="42.7692" lon="0.22271">
        <ele>2229.4100096</ele>
        <time>2015-01-03T11:31:33.680Z</time>
      </trkpt>
      <trkpt lat="42.76924" lon="0.22258">
        <ele>2226.2600064</ele>
        <time>2015-01-03T11:31:35.520Z</time>
      </trkpt>
      <trkpt lat="42.7693" lon="0.22246">
        <ele>2220.6400256</ele>
        <time>2015-01-03T11:31:37.490Z</time>
      </trkpt>
      <trkpt lat="42.76933" lon="0.22234">
        <ele>2215.12</ele>
        <time>2015-01-03T11:31:39.590Z</time>
      </trkpt>
      <trkpt lat="42.76934" lon="0.22218">
        <ele>2207.68</ele>
        <time>2015-01-03T11:31:42.590Z</time>
      </trkpt>
      <trkpt lat="42.76934" lon="0.22201">
        <ele>2200.3200128</ele>
        <time>2015-01-03T11:31:45.490Z</time>
      </trkpt>
      <trkpt lat="42.76935" lon="0.22184">
        <ele>2190.3000192</ele>
        <time>2015-01-03T11:31:48.500Z</time>
      </trkpt>
      <trkpt lat="42.76943" lon="0.22177">
        <ele>2181.56</ele>
        <time>2015-01-03T11:31:52.590Z</time>
      </trkpt>
      <trkpt lat="42.76947" lon="0.22188">
        <ele>2179.44</ele>
        <time>2015-01-03T11:32:02.590Z</time>
      </trkpt>
      <trkpt lat="42.76955" lon="0.22184">
        <ele>2176.0600192</ele>
        <time>2015-01-03T11:32:07.620Z</time>
      </trkpt>
      <trkpt lat="42.76958" lon="0.22174">
        <ele>2169.3200128</ele>
        <time>2015-01-03T11:32:10.490Z</time>
      </trkpt>
      <trkpt lat="42.76962" lon="0.22163">
        <ele>2162.6400256</ele>
        <time>2015-01-03T11:32:12.490Z</time>
      </trkpt>
      <trkpt lat="42.76963" lon="0.22148">
        <ele>2155.68</ele>
        <time>2015-01-03T11:32:14.590Z</time>
      </trkpt>
      <trkpt lat="42.76964" lon="0.22134">
        <ele>2150.9800192</ele>
        <time>2015-01-03T11:32:16.490Z</time>
      </trkpt>
      <trkpt lat="42.76962" lon="0.2212">
        <ele>2145.64</ele>
        <time>2015-01-03T11:32:18.510Z</time>
      </trkpt>
      <trkpt lat="42.76953" lon="0.2211">
        <ele>2141.6938860807</ele>
        <time>2015-01-03T11:32:20.490Z</time>
      </trkpt>
      <trkpt lat="42.76947" lon="0.22098">
        <ele>2135.9800192</ele>
        <time>2015-01-03T11:32:22.490Z</time>
      </trkpt>
      <trkpt lat="42.76943" lon="0.22085">
        <ele>2130.12</ele>
        <time>2015-01-03T11:32:24.590Z</time>
      </trkpt>
      <trkpt lat="42.76938" lon="0.22071">
        <ele>2124.8</ele>
        <time>2015-01-03T11:32:26.590Z</time>
      </trkpt>
      <trkpt lat="42.76931" lon="0.2206">
        <ele>2119.4700032</ele>
        <time>2015-01-03T11:32:28.680Z</time>
      </trkpt>
      <trkpt lat="42.76942" lon="0.22055">
        <ele>2119</ele>
        <time>2015-01-03T11:32:53.490Z</time>
      </trkpt>
      <trkpt lat="42.76952" lon="0.22057">
        <ele>2119</ele>
        <time>2015-01-03T11:32:56.590Z</time>
      </trkpt>
      <trkpt lat="42.76962" lon="0.22053">
        <ele>2113.4001536</ele>
        <time>2015-01-03T11:33:00.500Z</time>
      </trkpt>
      <trkpt lat="42.76967" lon="0.22038">
        <ele>2096.68</ele>
        <time>2015-01-03T11:33:04.590Z</time>
      </trkpt>
      <trkpt lat="42.76977" lon="0.22021">
        <ele>2091.5300096</ele>
        <time>2015-01-03T11:33:07.620Z</time>
      </trkpt>
      <trkpt lat="42.76982" lon="0.22006">
        <ele>2087.12</ele>
        <time>2015-01-03T11:33:09.590Z</time>
      </trkpt>
      <trkpt lat="42.7699" lon="0.21992">
        <ele>2080.24</ele>
        <time>2015-01-03T11:33:11.590Z</time>
      </trkpt>
      <trkpt lat="42.76995" lon="0.21979">
        <ele>2075.3200128</ele>
        <time>2015-01-03T11:33:13.490Z</time>
      </trkpt>
      <trkpt lat="42.76996" lon="0.21965">
        <ele>2069.9800192</ele>
        <time>2015-01-03T11:33:15.490Z</time>
      </trkpt>
      <trkpt lat="42.76997" lon="0.21951">
        <ele>2063.300032</ele>
        <time>2015-01-03T11:33:17.490Z</time>
      </trkpt>
      <trkpt lat="42.76996" lon="0.21933">
        <ele>2056.6836722699</ele>
        <time>2015-01-03T11:33:20.600Z</time>
      </trkpt>
      <trkpt lat="42.76996" lon="0.21919">
        <ele>2052.300032</ele>
        <time>2015-01-03T11:33:22.490Z</time>
      </trkpt>
      <trkpt lat="42.76996" lon="0.21904">
        <ele>2045.12</ele>
        <time>2015-01-03T11:33:24.590Z</time>
      </trkpt>
      <trkpt lat="42.76992" lon="0.21916">
        <ele>2042</ele>
        <time>2015-01-03T11:33:47.590Z</time>
      </trkpt>
      <trkpt lat="42.76994" lon="0.21898">
        <ele>2042</ele>
        <time>2015-01-03T11:33:52.490Z</time>
      </trkpt>
      <trkpt lat="42.76999" lon="0.21882">
        <ele>2042</ele>
        <time>2015-01-03T11:33:55.490Z</time>
      </trkpt>
      <trkpt lat="42.77004" lon="0.21869">
        <ele>2042</ele>
        <time>2015-01-03T11:33:59.590Z</time>
      </trkpt>
      <trkpt lat="42.7701" lon="0.21855">
        <ele>2019.12</ele>
        <time>2015-01-03T11:34:02.590Z</time>
      </trkpt>
      <trkpt lat="42.77017" lon="0.2184">
        <ele>2012.24</ele>
        <time>2015-01-03T11:34:05.590Z</time>
      </trkpt>
      <trkpt lat="42.77025" lon="0.21831">
        <ele>2006.68</ele>
        <time>2015-01-03T11:34:07.590Z</time>
      </trkpt>
      <trkpt lat="42.77035" lon="0.21825">
        <ele>2001.12</ele>
        <time>2015-01-03T11:34:09.590Z</time>
      </trkpt>
      <trkpt lat="42.77049" lon="0.21824">
        <ele>1997.44</ele>
        <time>2015-01-03T11:34:12.590Z</time>
      </trkpt>
      <trkpt lat="42.77051" lon="0.21842">
        <ele>1998</ele>
        <time>2015-01-03T11:34:25.490Z</time>
      </trkpt>
      <trkpt lat="42.77063" lon="0.21842">
        <ele>1998</ele>
        <time>2015-01-03T11:34:29.590Z</time>
      </trkpt>
      <trkpt lat="42.77073" lon="0.21844">
        <ele>1996</ele>
        <time>2015-01-03T11:34:32.590Z</time>
      </trkpt>
      <trkpt lat="42.77082" lon="0.21837">
        <ele>1992.48</ele>
        <time>2015-01-03T11:34:35.590Z</time>
      </trkpt>
      <trkpt lat="42.77088" lon="0.21826">
        <ele>1988</ele>
        <time>2015-01-03T11:34:38.590Z</time>
      </trkpt>
      <trkpt lat="42.77095" lon="0.21817">
        <ele>1983.6435505538</ele>
        <time>2015-01-03T11:34:40.590Z</time>
      </trkpt>
      <trkpt lat="42.77106" lon="0.21816">
        <ele>1973</ele>
        <time>2015-01-03T11:34:43.590Z</time>
      </trkpt>
      <trkpt lat="42.77113" lon="0.21811">
        <ele>1971.5728115524</ele>
        <time>2015-01-03T11:34:45.590Z</time>
      </trkpt>
      <trkpt lat="42.77122" lon="0.21804">
        <ele>1967.12</ele>
        <time>2015-01-03T11:34:47.590Z</time>
      </trkpt>
      <trkpt lat="42.77134" lon="0.21802">
        <ele>1961</ele>
        <time>2015-01-03T11:34:50.590Z</time>
      </trkpt>
      <trkpt lat="42.77145" lon="0.21809">
        <ele>1959.12</ele>
        <time>2015-01-03T11:34:53.590Z</time>
      </trkpt>
      <trkpt lat="42.77157" lon="0.2181">
        <ele>1955.56</ele>
        <time>2015-01-03T11:34:56.590Z</time>
      </trkpt>
      <trkpt lat="42.77169" lon="0.21811">
        <ele>1953.5656547373</ele>
        <time>2015-01-03T11:34:59.590Z</time>
      </trkpt>
      <trkpt lat="42.77181" lon="0.21815">
        <ele>1949.64</ele>
        <time>2015-01-03T11:35:02.510Z</time>
      </trkpt>
      <trkpt lat="42.77189" lon="0.21821">
        <ele>1948.56</ele>
        <time>2015-01-03T11:35:05.590Z</time>
      </trkpt>
      <trkpt lat="42.77197" lon="0.21828">
        <ele>1948</ele>
        <time>2015-01-03T11:35:26.590Z</time>
      </trkpt>
      <trkpt lat="42.77204" lon="0.21832">
        <ele>1946.68</ele>
        <time>2015-01-03T11:35:30.590Z</time>
      </trkpt>
      <trkpt lat="42.77215" lon="0.21833">
        <ele>1942</ele>
        <time>2015-01-03T11:35:42.590Z</time>
      </trkpt>
      <trkpt lat="42.77224" lon="0.21831">
        <ele>1942</ele>
        <time>2015-01-03T11:35:44.590Z</time>
      </trkpt>
      <trkpt lat="42.77233" lon="0.21829">
        <ele>1937</ele>
        <time>2015-01-03T11:35:47.590Z</time>
      </trkpt>
      <trkpt lat="42.77231" lon="0.2184">
        <ele>1934</ele>
        <time>2015-01-03T11:38:17.590Z</time>
      </trkpt>
      <trkpt lat="42.77224" lon="0.21836">
        <ele>1937</ele>
        <time>2015-01-03T11:44:22.590Z</time>
      </trkpt>
      <trkpt lat="42.77217" lon="0.21831">
        <ele>1936</ele>
        <time>2015-01-03T11:44:46.590Z</time>
      </trkpt>
      <trkpt lat="42.77209" lon="0.2183">
        <ele>1939</ele>
        <time>2015-01-03T11:45:19.590Z</time>
      </trkpt>
      <trkpt lat="42.77199" lon="0.21829">
        <ele>1941</ele>
        <time>2015-01-03T11:45:53.590Z</time>
      </trkpt>
      <trkpt lat="42.77192" lon="0.21829">
        <ele>1944</ele>
        <time>2015-01-03T11:46:08.590Z</time>
      </trkpt>
      <trkpt lat="42.77194" lon="0.2184">
        <ele>1947</ele>
        <time>2015-01-03T11:46:23.590Z</time>
      </trkpt>
      <trkpt lat="42.77196" lon="0.21852">
        <ele>1949</ele>
        <time>2015-01-03T11:46:34.590Z</time>
      </trkpt>
      <trkpt lat="42.77187" lon="0.21855">
        <ele>1953.56</ele>
        <time>2015-01-03T11:47:00.590Z</time>
      </trkpt>
      <trkpt lat="42.77188" lon="0.2187">
        <ele>1956.88</ele>
        <time>2015-01-03T11:47:30.590Z</time>
      </trkpt>
      <trkpt lat="42.77178" lon="0.21869">
        <ele>1963.44</ele>
        <time>2015-01-03T11:47:50.590Z</time>
      </trkpt>
      <trkpt lat="42.77169" lon="0.2187">
        <ele>1965</ele>
        <time>2015-01-03T11:48:02.590Z</time>
      </trkpt>
      <trkpt lat="42.77171" lon="0.21884">
        <ele>1968.88</ele>
        <time>2015-01-03T11:48:20.590Z</time>
      </trkpt>
      <trkpt lat="42.77162" lon="0.21886">
        <ele>1973.88</ele>
        <time>2015-01-03T11:48:45.590Z</time>
      </trkpt>
      <trkpt lat="42.77159" lon="0.21897">
        <ele>1979</ele>
        <time>2015-01-03T11:49:07.590Z</time>
      </trkpt>
      <trkpt lat="42.77162" lon="0.21909">
        <ele>1982</ele>
        <time>2015-01-03T11:49:21.590Z</time>
      </trkpt>
      <trkpt lat="42.77155" lon="0.21916">
        <ele>1986.88</ele>
        <time>2015-01-03T11:49:50.590Z</time>
      </trkpt>
      <trkpt lat="42.77146" lon="0.21914">
        <ele>1991</ele>
        <time>2015-01-03T11:50:06.620Z</time>
      </trkpt>
      <trkpt lat="42.77147" lon="0.21925">
        <ele>1994</ele>
        <time>2015-01-03T11:50:33.590Z</time>
      </trkpt>
      <trkpt lat="42.77152" lon="0.21934">
        <ele>1997</ele>
        <time>2015-01-03T11:50:46.590Z</time>
      </trkpt>
      <trkpt lat="42.77159" lon="0.21943">
        <ele>1999</ele>
        <time>2015-01-03T11:50:58.590Z</time>
      </trkpt>
      <trkpt lat="42.7715" lon="0.21949">
        <ele>2004</ele>
        <time>2015-01-03T11:51:28.590Z</time>
      </trkpt>
      <trkpt lat="42.77141" lon="0.21949">
        <ele>2008</ele>
        <time>2015-01-03T11:51:40.590Z</time>
      </trkpt>
      <trkpt lat="42.77133" lon="0.21945">
        <ele>2009</ele>
        <time>2015-01-03T11:51:48.590Z</time>
      </trkpt>
      <trkpt lat="42.77124" lon="0.21946">
        <ele>2010.44</ele>
        <time>2015-01-03T11:52:00.590Z</time>
      </trkpt>
      <trkpt lat="42.77116" lon="0.21943">
        <ele>2011.88</ele>
        <time>2015-01-03T11:52:10.590Z</time>
      </trkpt>
      <trkpt lat="42.77106" lon="0.21942">
        <ele>2015</ele>
        <time>2015-01-03T11:52:24.590Z</time>
      </trkpt>
      <trkpt lat="42.77098" lon="0.21944">
        <ele>2019</ele>
        <time>2015-01-03T11:52:37.590Z</time>
      </trkpt>
      <trkpt lat="42.77089" lon="0.21944">
        <ele>2021</ele>
        <time>2015-01-03T11:52:47.590Z</time>
      </trkpt>
      <trkpt lat="42.77081" lon="0.21942">
        <ele>2022</ele>
        <time>2015-01-03T11:52:58.590Z</time>
      </trkpt>
      <trkpt lat="42.77073" lon="0.21942">
        <ele>2024.32</ele>
        <time>2015-01-03T11:53:10.590Z</time>
      </trkpt>
      <trkpt lat="42.77064" lon="0.21945">
        <ele>2026</ele>
        <time>2015-01-03T11:53:20.590Z</time>
      </trkpt>
      <trkpt lat="42.77065" lon="0.21956">
        <ele>2030</ele>
        <time>2015-01-03T11:53:53.590Z</time>
      </trkpt>
      <trkpt lat="42.77055" lon="0.21956">
        <ele>2033</ele>
        <time>2015-01-03T11:54:06.590Z</time>
      </trkpt>
      <trkpt lat="42.77046" lon="0.21955">
        <ele>2033</ele>
        <time>2015-01-03T11:54:18.590Z</time>
      </trkpt>
      <trkpt lat="42.77037" lon="0.21955">
        <ele>2037</ele>
        <time>2015-01-03T11:54:28.590Z</time>
      </trkpt>
      <trkpt lat="42.77028" lon="0.21954">
        <ele>2040</ele>
        <time>2015-01-03T11:54:41.590Z</time>
      </trkpt>
      <trkpt lat="42.7702" lon="0.21955">
        <ele>2042</ele>
        <time>2015-01-03T11:54:53.590Z</time>
      </trkpt>
      <trkpt lat="42.7701" lon="0.21954">
        <ele>2042</ele>
        <time>2015-01-03T11:55:06.590Z</time>
      </trkpt>
      <trkpt lat="42.77002" lon="0.21956">
        <ele>2045</ele>
        <time>2015-01-03T11:55:17.590Z</time>
      </trkpt>
      <trkpt lat="42.76994" lon="0.2196">
        <ele>2046</ele>
        <time>2015-01-03T11:55:27.590Z</time>
      </trkpt>
      <trkpt lat="42.76985" lon="0.2196">
        <ele>2047</ele>
        <time>2015-01-03T11:55:37.590Z</time>
      </trkpt>
      <trkpt lat="42.76984" lon="0.21969">
        <ele>2052.44</ele>
        <time>2015-01-03T11:56:00.590Z</time>
      </trkpt>
      <trkpt lat="42.7699" lon="0.21976">
        <ele>2054</ele>
        <time>2015-01-03T11:56:11.590Z</time>
      </trkpt>
      <trkpt lat="42.76997" lon="0.21984">
        <ele>2056</ele>
        <time>2015-01-03T11:56:24.590Z</time>
      </trkpt>
      <trkpt lat="42.76989" lon="0.21991">
        <ele>2060</ele>
        <time>2015-01-03T11:56:42.590Z</time>
      </trkpt>
      <trkpt lat="42.7698" lon="0.21995">
        <ele>2062</ele>
        <time>2015-01-03T11:56:54.590Z</time>
      </trkpt>
      <trkpt lat="42.76971" lon="0.21996">
        <ele>2063</ele>
        <time>2015-01-03T11:57:09.590Z</time>
      </trkpt>
      <trkpt lat="42.76961" lon="0.21995">
        <ele>2066.88</ele>
        <time>2015-01-03T11:57:20.590Z</time>
      </trkpt>
      <trkpt lat="42.76964" lon="0.22005">
        <ele>2069.9199872</ele>
        <time>2015-01-03T11:57:40.610Z</time>
      </trkpt>
      <trkpt lat="42.76972" lon="0.22011">
        <ele>2072</ele>
        <time>2015-01-03T11:57:55.590Z</time>
      </trkpt>
      <trkpt lat="42.7698" lon="0.22017">
        <ele>2074.44</ele>
        <time>2015-01-03T11:58:05.590Z</time>
      </trkpt>
      <trkpt lat="42.76971" lon="0.2202">
        <ele>2076</ele>
        <time>2015-01-03T11:58:26.690Z</time>
      </trkpt>
      <trkpt lat="42.76975" lon="0.22027">
        <ele>2079</ele>
        <time>2015-01-03T11:58:41.690Z</time>
      </trkpt>
      <trkpt lat="42.76981" lon="0.22032">
        <ele>2079</ele>
        <time>2015-01-03T11:58:49.690Z</time>
      </trkpt>
      <trkpt lat="42.76988" lon="0.22035">
        <ele>2083</ele>
        <time>2015-01-03T11:58:58.690Z</time>
      </trkpt>
      <trkpt lat="42.76994" lon="0.22037">
        <ele>2085</ele>
        <time>2015-01-03T11:59:07.690Z</time>
      </trkpt>
      <trkpt lat="42.76987" lon="0.22044">
        <ele>2086</ele>
        <time>2015-01-03T11:59:17.590Z</time>
      </trkpt>
      <trkpt lat="42.76978" lon="0.22046">
        <ele>2089</ele>
        <time>2015-01-03T11:59:32.590Z</time>
      </trkpt>
      <trkpt lat="42.76969" lon="0.2205">
        <ele>2092</ele>
        <time>2015-01-03T11:59:46.620Z</time>
      </trkpt>
      <trkpt lat="42.7696" lon="0.2205">
        <ele>2092</ele>
        <time>2015-01-03T11:59:55.590Z</time>
      </trkpt>
      <trkpt lat="42.76963" lon="0.22061">
        <ele>2095</ele>
        <time>2015-01-03T12:00:18.590Z</time>
      </trkpt>
      <trkpt lat="42.76972" lon="0.22064">
        <ele>2098</ele>
        <time>2015-01-03T12:00:29.590Z</time>
      </trkpt>
      <trkpt lat="42.7698" lon="0.22068">
        <ele>2099</ele>
        <time>2015-01-03T12:00:40.590Z</time>
      </trkpt>
      <trkpt lat="42.7699" lon="0.22071">
        <ele>2101</ele>
        <time>2015-01-03T12:00:52.590Z</time>
      </trkpt>
      <trkpt lat="42.76999" lon="0.22074">
        <ele>2102</ele>
        <time>2015-01-03T12:01:02.590Z</time>
      </trkpt>
      <trkpt lat="42.76991" lon="0.22076">
        <ele>2107</ele>
        <time>2015-01-03T12:01:32.590Z</time>
      </trkpt>
      <trkpt lat="42.76993" lon="0.22087">
        <ele>2110.44</ele>
        <time>2015-01-03T12:01:55.590Z</time>
      </trkpt>
      <trkpt lat="42.76986" lon="0.22089">
        <ele>2111</ele>
        <time>2015-01-03T12:02:05.620Z</time>
      </trkpt>
      <trkpt lat="42.76978" lon="0.22092">
        <ele>2116</ele>
        <time>2015-01-03T12:02:16.590Z</time>
      </trkpt>
      <trkpt lat="42.76984" lon="0.221">
        <ele>2119</ele>
        <time>2015-01-03T12:02:36.600Z</time>
      </trkpt>
      <trkpt lat="42.7699" lon="0.22107">
        <ele>2121</ele>
        <time>2015-01-03T12:02:46.590Z</time>
      </trkpt>
      <trkpt lat="42.76996" lon="0.22113">
        <ele>2121</ele>
        <time>2015-01-03T12:02:55.590Z</time>
      </trkpt>
      <trkpt lat="42.77001" lon="0.22121">
        <ele>2122</ele>
        <time>2015-01-03T12:03:05.600Z</time>
      </trkpt>
      <trkpt lat="42.77007" lon="0.22129">
        <ele>2124.44</ele>
        <time>2015-01-03T12:03:15.590Z</time>
      </trkpt>
      <trkpt lat="42.77012" lon="0.22136">
        <ele>2126</ele>
        <time>2015-01-03T12:03:23.600Z</time>
      </trkpt>
      <trkpt lat="42.77017" lon="0.22143">
        <ele>2127</ele>
        <time>2015-01-03T12:03:32.590Z</time>
      </trkpt>
      <trkpt lat="42.7701" lon="0.22145">
        <ele>2131.88</ele>
        <time>2015-01-03T12:03:50.590Z</time>
      </trkpt>
      <trkpt lat="42.77002" lon="0.22144">
        <ele>2133</ele>
        <time>2015-01-03T12:03:58.590Z</time>
      </trkpt>
      <trkpt lat="42.76994" lon="0.22145">
        <ele>2135</ele>
        <time>2015-01-03T12:04:08.590Z</time>
      </trkpt>
      <trkpt lat="42.76986" lon="0.22146">
        <ele>2136</ele>
        <time>2015-01-03T12:04:18.590Z</time>
      </trkpt>
      <trkpt lat="42.76979" lon="0.22144">
        <ele>2139</ele>
        <time>2015-01-03T12:04:28.590Z</time>
      </trkpt>
      <trkpt lat="42.76979" lon="0.22155">
        <ele>2142</ele>
        <time>2015-01-03T12:04:47.590Z</time>
      </trkpt>
      <trkpt lat="42.76984" lon="0.22163">
        <ele>2145</ele>
        <time>2015-01-03T12:04:56.590Z</time>
      </trkpt>
      <trkpt lat="42.7699" lon="0.22171">
        <ele>2145</ele>
        <time>2015-01-03T12:05:06.590Z</time>
      </trkpt>
      <trkpt lat="42.76994" lon="0.22179">
        <ele>2147.88</ele>
        <time>2015-01-03T12:05:15.590Z</time>
      </trkpt>
      <trkpt lat="42.76999" lon="0.22187">
        <ele>2150.44</ele>
        <time>2015-01-03T12:05:25.590Z</time>
      </trkpt>
      <trkpt lat="42.77004" lon="0.22194">
        <ele>2152</ele>
        <time>2015-01-03T12:05:35.590Z</time>
      </trkpt>
      <trkpt lat="42.77008" lon="0.22205">
        <ele>2154</ele>
        <time>2015-01-03T12:05:45.590Z</time>
      </trkpt>
      <trkpt lat="42.77013" lon="0.22216">
        <ele>2158</ele>
        <time>2015-01-03T12:05:56.590Z</time>
      </trkpt>
      <trkpt lat="42.77016" lon="0.22228">
        <ele>2160</ele>
        <time>2015-01-03T12:06:09.590Z</time>
      </trkpt>
      <trkpt lat="42.77006" lon="0.22225">
        <ele>2162</ele>
        <time>2015-01-03T12:06:28.590Z</time>
      </trkpt>
      <trkpt lat="42.76998" lon="0.22221">
        <ele>2167</ele>
        <time>2015-01-03T12:06:42.590Z</time>
      </trkpt>
      <trkpt lat="42.76988" lon="0.22221">
        <ele>2169</ele>
        <time>2015-01-03T12:06:52.590Z</time>
      </trkpt>
      <trkpt lat="42.76979" lon="0.22218">
        <ele>2171</ele>
        <time>2015-01-03T12:07:04.590Z</time>
      </trkpt>
      <trkpt lat="42.7697" lon="0.22216">
        <ele>2171</ele>
        <time>2015-01-03T12:07:16.590Z</time>
      </trkpt>
      <trkpt lat="42.76962" lon="0.22217">
        <ele>2173.4638893654</ele>
        <time>2015-01-03T12:07:25.330Z</time>
      </trkpt>
      <trkpt lat="42.76953" lon="0.22215">
        <ele>2176</ele>
        <time>2015-01-03T12:07:35.590Z</time>
      </trkpt>
      <trkpt lat="42.76943" lon="0.22214">
        <ele>2180</ele>
        <time>2015-01-03T12:07:49.590Z</time>
      </trkpt>
      <trkpt lat="42.76934" lon="0.22214">
        <ele>2180.88</ele>
        <time>2015-01-03T12:08:00.590Z</time>
      </trkpt>
      <trkpt lat="42.76937" lon="0.22226">
        <ele>2187</ele>
        <time>2015-01-03T12:08:32.590Z</time>
      </trkpt>
      <trkpt lat="42.76944" lon="0.22235">
        <ele>2189.44</ele>
        <time>2015-01-03T12:08:45.590Z</time>
      </trkpt>
      <trkpt lat="42.76949" lon="0.22247">
        <ele>2192</ele>
        <time>2015-01-03T12:08:58.590Z</time>
      </trkpt>
      <trkpt lat="42.76955" lon="0.22257">
        <ele>2195</ele>
        <time>2015-01-03T12:09:11.590Z</time>
      </trkpt>
      <trkpt lat="42.76961" lon="0.22266">
        <ele>2196</ele>
        <time>2015-01-03T12:09:25.590Z</time>
      </trkpt>
      <trkpt lat="42.76969" lon="0.22276">
        <ele>2199</ele>
        <time>2015-01-03T12:09:38.590Z</time>
      </trkpt>
      <trkpt lat="42.76974" lon="0.22287">
        <ele>2201.44</ele>
        <time>2015-01-03T12:09:50.590Z</time>
      </trkpt>
      <trkpt lat="42.76979" lon="0.22299">
        <ele>2206</ele>
        <time>2015-01-03T12:10:01.590Z</time>
      </trkpt>
      <trkpt lat="42.76985" lon="0.2231">
        <ele>2207</ele>
        <time>2015-01-03T12:10:16.590Z</time>
      </trkpt>
      <trkpt lat="42.76978" lon="0.22317">
        <ele>2213</ele>
        <time>2015-01-03T12:10:49.590Z</time>
      </trkpt>
      <trkpt lat="42.76968" lon="0.22317">
        <ele>2218</ele>
        <time>2015-01-03T12:11:02.590Z</time>
      </trkpt>
      <trkpt lat="42.76958" lon="0.22317">
        <ele>2220</ele>
        <time>2015-01-03T12:11:14.620Z</time>
      </trkpt>
      <trkpt lat="42.7696" lon="0.2233">
        <ele>2223.44</ele>
        <time>2015-01-03T12:11:40.590Z</time>
      </trkpt>
      <trkpt lat="42.76949" lon="0.22329">
        <ele>2229</ele>
        <time>2015-01-03T12:12:02.590Z</time>
      </trkpt>
      <trkpt lat="42.7694" lon="0.22328">
        <ele>2230</ele>
        <time>2015-01-03T12:12:13.590Z</time>
      </trkpt>
      <trkpt lat="42.76931" lon="0.22324">
        <ele>2234</ele>
        <time>2015-01-03T12:12:27.620Z</time>
      </trkpt>
      <trkpt lat="42.76936" lon="0.22336">
        <ele>2235</ele>
        <time>2015-01-03T12:12:48.590Z</time>
      </trkpt>
      <trkpt lat="42.76939" lon="0.22349">
        <ele>2241</ele>
        <time>2015-01-03T12:13:03.620Z</time>
      </trkpt>
      <trkpt lat="42.76932" lon="0.22353">
        <ele>2245</ele>
        <time>2015-01-03T12:13:36.590Z</time>
      </trkpt>
      <trkpt lat="42.76932" lon="0.22341">
        <ele>2246</ele>
        <time>2015-01-03T12:14:34.590Z</time>
      </trkpt>
      <trkpt lat="42.76926" lon="0.22331">
        <ele>2242</ele>
        <time>2015-01-03T12:14:47.590Z</time>
      </trkpt>
      <trkpt lat="42.76915" lon="0.22334">
        <ele>2243.44</ele>
        <time>2015-01-03T12:15:10.590Z</time>
      </trkpt>
      <trkpt lat="42.76905" lon="0.22333">
        <ele>2245</ele>
        <time>2015-01-03T12:15:24.620Z</time>
      </trkpt>
      <trkpt lat="42.76894" lon="0.22332">
        <ele>2248</ele>
        <time>2015-01-03T12:15:38.590Z</time>
      </trkpt>
      <trkpt lat="42.76885" lon="0.22333">
        <ele>2251</ele>
        <time>2015-01-03T12:15:53.590Z</time>
      </trkpt>
      <trkpt lat="42.76875" lon="0.22332">
        <ele>2254</ele>
        <time>2015-01-03T12:16:07.590Z</time>
      </trkpt>
      <trkpt lat="42.76865" lon="0.2233">
        <ele>2256</ele>
        <time>2015-01-03T12:16:21.590Z</time>
      </trkpt>
      <trkpt lat="42.76856" lon="0.22326">
        <ele>2257</ele>
        <time>2015-01-03T12:16:32.590Z</time>
      </trkpt>
      <trkpt lat="42.7686" lon="0.22338">
        <ele>2261</ele>
        <time>2015-01-03T12:16:51.590Z</time>
      </trkpt>
      <trkpt lat="42.76866" lon="0.22346">
        <ele>2263</ele>
        <time>2015-01-03T12:17:01.590Z</time>
      </trkpt>
      <trkpt lat="42.76872" lon="0.22355">
        <ele>2263.44</ele>
        <time>2015-01-03T12:17:10.590Z</time>
      </trkpt>
      <trkpt lat="42.76864" lon="0.22352">
        <ele>2266</ele>
        <time>2015-01-03T12:17:26.590Z</time>
      </trkpt>
      <trkpt lat="42.76856" lon="0.2235">
        <ele>2267</ele>
        <time>2015-01-03T12:17:36.590Z</time>
      </trkpt>
      <trkpt lat="42.76854" lon="0.22361">
        <ele>2271</ele>
        <time>2015-01-03T12:18:08.590Z</time>
      </trkpt>
      <trkpt lat="42.76847" lon="0.22359">
        <ele>2276</ele>
        <time>2015-01-03T12:18:55.590Z</time>
      </trkpt>
      <trkpt lat="42.7684" lon="0.22356">
        <ele>2278</ele>
        <time>2015-01-03T12:19:19.590Z</time>
      </trkpt>
      <trkpt lat="42.76834" lon="0.22352">
        <ele>2280</ele>
        <time>2015-01-03T12:19:59.590Z</time>
      </trkpt>
      <trkpt lat="42.76826" lon="0.22348">
        <ele>2283</ele>
        <time>2015-01-03T12:20:14.590Z</time>
      </trkpt>
      <trkpt lat="42.76818" lon="0.2235">
        <ele>2285</ele>
        <time>2015-01-03T12:21:08.590Z</time>
      </trkpt>
      <trkpt lat="42.7682" lon="0.22358">
        <ele>2290</ele>
        <time>2015-01-03T12:21:47.590Z</time>
      </trkpt>
      <trkpt lat="42.76812" lon="0.22355">
        <ele>2291</ele>
        <time>2015-01-03T12:33:17.590Z</time>
      </trkpt>
      <trkpt lat="42.76807" lon="0.22347">
        <ele>2288.68</ele>
        <time>2015-01-03T12:33:30.590Z</time>
      </trkpt>
      <trkpt lat="42.76798" lon="0.22336">
        <ele>2285</ele>
        <time>2015-01-03T12:35:01.590Z</time>
      </trkpt>
      <trkpt lat="42.7679" lon="0.22328">
        <ele>2285</ele>
        <time>2015-01-03T12:35:04.590Z</time>
      </trkpt>
      <trkpt lat="42.76799" lon="0.2232">
        <ele>2278.24</ele>
        <time>2015-01-03T12:35:20.590Z</time>
      </trkpt>
      <trkpt lat="42.7681" lon="0.22318">
        <ele>2273</ele>
        <time>2015-01-03T12:35:24.590Z</time>
      </trkpt>
      <trkpt lat="42.76815" lon="0.22305">
        <ele>2268.56</ele>
        <time>2015-01-03T12:35:27.590Z</time>
      </trkpt>
      <trkpt lat="42.76818" lon="0.22292">
        <ele>2264.7184346572</ele>
        <time>2015-01-03T12:35:29.590Z</time>
      </trkpt>
      <trkpt lat="42.76821" lon="0.22271">
        <ele>2255.68</ele>
        <time>2015-01-03T12:35:32.590Z</time>
      </trkpt>
      <trkpt lat="42.76823" lon="0.22257">
        <ele>2250.12</ele>
        <time>2015-01-03T12:35:34.590Z</time>
      </trkpt>
      <trkpt lat="42.76825" lon="0.22238">
        <ele>2242.68</ele>
        <time>2015-01-03T12:35:37.590Z</time>
      </trkpt>
      <trkpt lat="42.76831" lon="0.22225">
        <ele>2236.24</ele>
        <time>2015-01-03T12:35:39.590Z</time>
      </trkpt>
      <trkpt lat="42.76834" lon="0.22209">
        <ele>2230.68</ele>
        <time>2015-01-03T12:35:41.590Z</time>
      </trkpt>
      <trkpt lat="42.76836" lon="0.22192">
        <ele>2223.68</ele>
        <time>2015-01-03T12:35:43.590Z</time>
      </trkpt>
      <trkpt lat="42.76839" lon="0.22178">
        <ele>2217.68</ele>
        <time>2015-01-03T12:35:45.590Z</time>
      </trkpt>
      <trkpt lat="42.76843" lon="0.2216">
        <ele>2207.5567021192</ele>
        <time>2015-01-03T12:35:48.610Z</time>
      </trkpt>
      <trkpt lat="42.7685" lon="0.22169">
        <ele>2200</ele>
        <time>2015-01-03T12:36:00.590Z</time>
      </trkpt>
      <trkpt lat="42.76856" lon="0.22184">
        <ele>2200</ele>
        <time>2015-01-03T12:36:17.590Z</time>
      </trkpt>
      <trkpt lat="42.76867" lon="0.22186">
        <ele>2198</ele>
        <time>2015-01-03T12:36:32.590Z</time>
      </trkpt>
      <trkpt lat="42.76873" lon="0.22173">
        <ele>2194.92</ele>
        <time>2015-01-03T12:36:35.590Z</time>
      </trkpt>
      <trkpt lat="42.76878" lon="0.22157">
        <ele>2191</ele>
        <time>2015-01-03T12:36:38.590Z</time>
      </trkpt>
      <trkpt lat="42.76876" lon="0.2214">
        <ele>2173.92</ele>
        <time>2015-01-03T12:36:41.590Z</time>
      </trkpt>
      <trkpt lat="42.76877" lon="0.22125">
        <ele>2163.6701063577</ele>
        <time>2015-01-03T12:36:44.610Z</time>
      </trkpt>
      <trkpt lat="42.76883" lon="0.22112">
        <ele>2155.12</ele>
        <time>2015-01-03T12:36:47.590Z</time>
      </trkpt>
      <trkpt lat="42.7688" lon="0.22096">
        <ele>2148.12</ele>
        <time>2015-01-03T12:36:50.590Z</time>
      </trkpt>
      <trkpt lat="42.76888" lon="0.22089">
        <ele>2143</ele>
        <time>2015-01-03T12:37:34.590Z</time>
      </trkpt>
      <trkpt lat="42.76895" lon="0.22079">
        <ele>2143</ele>
        <time>2015-01-03T12:37:37.590Z</time>
      </trkpt>
      <trkpt lat="42.76902" lon="0.22062">
        <ele>2134.3601024</ele>
        <time>2015-01-03T12:37:40.690Z</time>
      </trkpt>
      <trkpt lat="42.76905" lon="0.22048">
        <ele>2116.68</ele>
        <time>2015-01-03T12:37:42.590Z</time>
      </trkpt>
      <trkpt lat="42.76904" lon="0.22034">
        <ele>2112.1428496794</ele>
        <time>2015-01-03T12:37:44.590Z</time>
      </trkpt>
      <trkpt lat="42.76908" lon="0.22021">
        <ele>2107.68</ele>
        <time>2015-01-03T12:37:46.590Z</time>
      </trkpt>
      <trkpt lat="42.76913" lon="0.2201">
        <ele>2098.12</ele>
        <time>2015-01-03T12:37:50.590Z</time>
      </trkpt>
      <trkpt lat="42.76923" lon="0.22007">
        <ele>2093</ele>
        <time>2015-01-03T12:38:17.590Z</time>
      </trkpt>
      <trkpt lat="42.76935" lon="0.22009">
        <ele>2090.8</ele>
        <time>2015-01-03T12:38:20.590Z</time>
      </trkpt>
      <trkpt lat="42.76946" lon="0.2201">
        <ele>2085</ele>
        <time>2015-01-03T12:38:25.590Z</time>
      </trkpt>
      <trkpt lat="42.7695" lon="0.21998">
        <ele>2080.68</ele>
        <time>2015-01-03T12:38:28.590Z</time>
      </trkpt>
      <trkpt lat="42.76952" lon="0.21986">
        <ele>2075.56</ele>
        <time>2015-01-03T12:38:30.590Z</time>
      </trkpt>
      <trkpt lat="42.76955" lon="0.21973">
        <ele>2070.68</ele>
        <time>2015-01-03T12:38:32.590Z</time>
      </trkpt>
      <trkpt lat="42.76962" lon="0.21954">
        <ele>2064.68</ele>
        <time>2015-01-03T12:38:35.590Z</time>
      </trkpt>
      <trkpt lat="42.76967" lon="0.21942">
        <ele>2059.12</ele>
        <time>2015-01-03T12:38:37.590Z</time>
      </trkpt>
      <trkpt lat="42.76971" lon="0.21927">
        <ele>2055.5900288</ele>
        <time>2015-01-03T12:38:39.620Z</time>
      </trkpt>
      <trkpt lat="42.76969" lon="0.21913">
        <ele>2049.12</ele>
        <time>2015-01-03T12:38:41.590Z</time>
      </trkpt>
      <trkpt lat="42.76967" lon="0.21897">
        <ele>2044.12</ele>
        <time>2015-01-03T12:38:44.590Z</time>
      </trkpt>
      <trkpt lat="42.76968" lon="0.21883">
        <ele>2036.68</ele>
        <time>2015-01-03T12:38:47.590Z</time>
      </trkpt>
      <trkpt lat="42.76979" lon="0.21893">
        <ele>2032</ele>
        <time>2015-01-03T12:39:01.590Z</time>
      </trkpt>
      <trkpt lat="42.76984" lon="0.21882">
        <ele>2032</ele>
        <time>2015-01-03T12:39:18.590Z</time>
      </trkpt>
      <trkpt lat="42.76986" lon="0.21867">
        <ele>2028.92</ele>
        <time>2015-01-03T12:39:20.590Z</time>
      </trkpt>
      <trkpt lat="42.76992" lon="0.2185">
        <ele>2016.68</ele>
        <time>2015-01-03T12:39:23.590Z</time>
      </trkpt>
      <trkpt lat="42.76997" lon="0.21838">
        <ele>2012.12</ele>
        <time>2015-01-03T12:39:25.590Z</time>
      </trkpt>
      <trkpt lat="42.77003" lon="0.21829">
        <ele>2007.5900288</ele>
        <time>2015-01-03T12:39:27.620Z</time>
      </trkpt>
      <trkpt lat="42.77005" lon="0.21816">
        <ele>2001.8</ele>
        <time>2015-01-03T12:39:29.590Z</time>
      </trkpt>
      <trkpt lat="42.7701" lon="0.21797">
        <ele>1993.12</ele>
        <time>2015-01-03T12:39:32.590Z</time>
      </trkpt>
      <trkpt lat="42.77017" lon="0.21782">
        <ele>1987.68</ele>
        <time>2015-01-03T12:39:34.590Z</time>
      </trkpt>
      <trkpt lat="42.77024" lon="0.21769">
        <ele>1982.56</ele>
        <time>2015-01-03T12:39:36.590Z</time>
      </trkpt>
      <trkpt lat="42.77033" lon="0.21758">
        <ele>1977.12</ele>
        <time>2015-01-03T12:39:38.590Z</time>
      </trkpt>
      <trkpt lat="42.77037" lon="0.21746">
        <ele>1969</ele>
        <time>2015-01-03T12:39:42.590Z</time>
      </trkpt>
      <trkpt lat="42.77036" lon="0.21759">
        <ele>1971</ele>
        <time>2015-01-03T12:39:59.590Z</time>
      </trkpt>
      <trkpt lat="42.77051" lon="0.2176">
        <ele>1970</ele>
        <time>2015-01-03T12:40:18.590Z</time>
      </trkpt>
      <trkpt lat="42.77061" lon="0.21753">
        <ele>1966.04</ele>
        <time>2015-01-03T12:40:20.590Z</time>
      </trkpt>
      <trkpt lat="42.77071" lon="0.21744">
        <ele>1954.56</ele>
        <time>2015-01-03T12:40:22.590Z</time>
      </trkpt>
      <trkpt lat="42.77079" lon="0.21736">
        <ele>1950.7058742329</ele>
        <time>2015-01-03T12:40:24.590Z</time>
      </trkpt>
      <trkpt lat="42.7709" lon="0.21729">
        <ele>1944.68</ele>
        <time>2015-01-03T12:40:26.590Z</time>
      </trkpt>
      <trkpt lat="42.77102" lon="0.21722">
        <ele>1940.56</ele>
        <time>2015-01-03T12:40:28.590Z</time>
      </trkpt>
      <trkpt lat="42.77114" lon="0.21719">
        <ele>1937.5299968</ele>
        <time>2015-01-03T12:40:30.620Z</time>
      </trkpt>
      <trkpt lat="42.77126" lon="0.21713">
        <ele>1933.56</ele>
        <time>2015-01-03T12:40:32.590Z</time>
      </trkpt>
      <trkpt lat="42.77138" lon="0.21705">
        <ele>1929.68</ele>
        <time>2015-01-03T12:40:34.590Z</time>
      </trkpt>
      <trkpt lat="42.77151" lon="0.21696">
        <ele>1924.68</ele>
        <time>2015-01-03T12:40:36.590Z</time>
      </trkpt>
      <trkpt lat="42.77164" lon="0.21684">
        <ele>1918.56</ele>
        <time>2015-01-03T12:40:38.590Z</time>
      </trkpt>
      <trkpt lat="42.77174" lon="0.2167">
        <ele>1914.7058742329</ele>
        <time>2015-01-03T12:40:40.590Z</time>
      </trkpt>
      <trkpt lat="42.77188" lon="0.21661">
        <ele>1908.56</ele>
        <time>2015-01-03T12:40:42.590Z</time>
      </trkpt>
      <trkpt lat="42.77194" lon="0.21646">
        <ele>1906.12</ele>
        <time>2015-01-03T12:40:44.590Z</time>
      </trkpt>
      <trkpt lat="42.77201" lon="0.2163">
        <ele>1900.68</ele>
        <time>2015-01-03T12:40:46.590Z</time>
      </trkpt>
      <trkpt lat="42.77211" lon="0.21632">
        <ele>1896.56</ele>
        <time>2015-01-03T12:40:49.590Z</time>
      </trkpt>
      <trkpt lat="42.77211" lon="0.21645">
        <ele>1896</ele>
        <time>2015-01-03T12:41:26.590Z</time>
      </trkpt>
      <trkpt lat="42.77214" lon="0.21632">
        <ele>1896</ele>
        <time>2015-01-03T12:41:42.590Z</time>
      </trkpt>
      <trkpt lat="42.77219" lon="0.21617">
        <ele>1896</ele>
        <time>2015-01-03T12:41:44.590Z</time>
      </trkpt>
      <trkpt lat="42.77226" lon="0.21605">
        <ele>1896</ele>
        <time>2015-01-03T12:41:46.590Z</time>
      </trkpt>
      <trkpt lat="42.77228" lon="0.21591">
        <ele>1896</ele>
        <time>2015-01-03T12:41:48.590Z</time>
      </trkpt>
      <trkpt lat="42.77236" lon="0.21581">
        <ele>1890.28</ele>
        <time>2015-01-03T12:41:50.590Z</time>
      </trkpt>
      <trkpt lat="42.77246" lon="0.21581">
        <ele>1874.56</ele>
        <time>2015-01-03T12:41:52.590Z</time>
      </trkpt>
      <trkpt lat="42.77252" lon="0.21567">
        <ele>1871.68</ele>
        <time>2015-01-03T12:41:55.590Z</time>
      </trkpt>
      <trkpt lat="42.77263" lon="0.21561">
        <ele>1867.68</ele>
        <time>2015-01-03T12:41:57.590Z</time>
      </trkpt>
      <trkpt lat="42.77271" lon="0.21547">
        <ele>1860.68</ele>
        <time>2015-01-03T12:42:00.590Z</time>
      </trkpt>
      <trkpt lat="42.77279" lon="0.21535">
        <ele>1855.68</ele>
        <time>2015-01-03T12:42:02.590Z</time>
      </trkpt>
      <trkpt lat="42.7728" lon="0.21517">
        <ele>1851.68</ele>
        <time>2015-01-03T12:42:04.590Z</time>
      </trkpt>
      <trkpt lat="42.77278" lon="0.21499">
        <ele>1846.5656547373</ele>
        <time>2015-01-03T12:42:06.590Z</time>
      </trkpt>
      <trkpt lat="42.77278" lon="0.21482">
        <ele>1846</ele>
        <time>2015-01-03T12:42:09.590Z</time>
      </trkpt>
      <trkpt lat="42.77281" lon="0.21465">
        <ele>1845</ele>
        <time>2015-01-03T12:42:12.590Z</time>
      </trkpt>
      <trkpt lat="42.77291" lon="0.21455">
        <ele>1841.56</ele>
        <time>2015-01-03T12:42:15.590Z</time>
      </trkpt>
      <trkpt lat="42.77297" lon="0.21445">
        <ele>1837.56</ele>
        <time>2015-01-03T12:42:17.590Z</time>
      </trkpt>
      <trkpt lat="42.77297" lon="0.21428">
        <ele>1833.56</ele>
        <time>2015-01-03T12:42:20.590Z</time>
      </trkpt>
      <trkpt lat="42.77292" lon="0.21418">
        <ele>1831</ele>
        <time>2015-01-03T12:42:23.590Z</time>
      </trkpt>
      <trkpt lat="42.77306" lon="0.2142">
        <ele>1829</ele>
        <time>2015-01-03T12:43:22.590Z</time>
      </trkpt>
      <trkpt lat="42.77315" lon="0.2142">
        <ele>1829</ele>
        <time>2015-01-03T12:43:24.620Z</time>
      </trkpt>
      <trkpt lat="42.77323" lon="0.21411">
        <ele>1829</ele>
        <time>2015-01-03T12:43:26.590Z</time>
      </trkpt>
      <trkpt lat="42.77333" lon="0.2141">
        <ele>1829</ele>
        <time>2015-01-03T12:43:28.590Z</time>
      </trkpt>
      <trkpt lat="42.77344" lon="0.21403">
        <ele>1822.84</ele>
        <time>2015-01-03T12:43:30.590Z</time>
      </trkpt>
      <trkpt lat="42.77357" lon="0.21405">
        <ele>1806.56</ele>
        <time>2015-01-03T12:43:32.590Z</time>
      </trkpt>
      <trkpt lat="42.77368" lon="0.21403">
        <ele>1805</ele>
        <time>2015-01-03T12:43:34.590Z</time>
      </trkpt>
      <trkpt lat="42.77379" lon="0.21393">
        <ele>1803.1372494886</ele>
        <time>2015-01-03T12:43:36.590Z</time>
      </trkpt>
      <trkpt lat="42.77388" lon="0.21387">
        <ele>1799.12</ele>
        <time>2015-01-03T12:43:38.590Z</time>
      </trkpt>
      <trkpt lat="42.77391" lon="0.21374">
        <ele>1794.44</ele>
        <time>2015-01-03T12:43:50.590Z</time>
      </trkpt>
      <trkpt lat="42.77394" lon="0.2136">
        <ele>1795</ele>
        <time>2015-01-03T12:43:52.590Z</time>
      </trkpt>
      <trkpt lat="42.77401" lon="0.2135">
        <ele>1795</ele>
        <time>2015-01-03T12:43:54.590Z</time>
      </trkpt>
      <trkpt lat="42.77412" lon="0.21355">
        <ele>1795</ele>
        <time>2015-01-03T12:43:56.590Z</time>
      </trkpt>
      <trkpt lat="42.77423" lon="0.21357">
        <ele>1795</ele>
        <time>2015-01-03T12:43:58.590Z</time>
      </trkpt>
      <trkpt lat="42.77436" lon="0.21349">
        <ele>1789.72</ele>
        <time>2015-01-03T12:44:00.630Z</time>
      </trkpt>
      <trkpt lat="42.77444" lon="0.21336">
        <ele>1781.24</ele>
        <time>2015-01-03T12:44:02.590Z</time>
      </trkpt>
      <trkpt lat="42.77454" lon="0.21334">
        <ele>1776.56</ele>
        <time>2015-01-03T12:44:04.590Z</time>
      </trkpt>
      <trkpt lat="42.7747" lon="0.21337">
        <ele>1771.68</ele>
        <time>2015-01-03T12:44:06.590Z</time>
      </trkpt>
      <trkpt lat="42.77486" lon="0.21343">
        <ele>1768.56122409</ele>
        <time>2015-01-03T12:44:08.600Z</time>
      </trkpt>
      <trkpt lat="42.77501" lon="0.21338">
        <ele>1765.56</ele>
        <time>2015-01-03T12:44:10.590Z</time>
      </trkpt>
      <trkpt lat="42.77509" lon="0.21324">
        <ele>1762.24</ele>
        <time>2015-01-03T12:44:12.590Z</time>
      </trkpt>
      <trkpt lat="42.77514" lon="0.21311">
        <ele>1758.56</ele>
        <time>2015-01-03T12:44:14.590Z</time>
      </trkpt>
      <trkpt lat="42.7752" lon="0.21299">
        <ele>1755.56</ele>
        <time>2015-01-03T12:44:17.590Z</time>
      </trkpt>
      <trkpt lat="42.77525" lon="0.21313">
        <ele>1753</ele>
        <time>2015-01-03T12:44:20.590Z</time>
      </trkpt>
      <trkpt lat="42.77532" lon="0.21326">
        <ele>1752</ele>
        <time>2015-01-03T12:44:23.590Z</time>
      </trkpt>
      <trkpt lat="42.77535" lon="0.21313">
        <ele>1750</ele>
        <time>2015-01-03T12:44:27.590Z</time>
      </trkpt>
      <trkpt lat="42.77535" lon="0.21297">
        <ele>1748.56</ele>
        <time>2015-01-03T12:44:30.590Z</time>
      </trkpt>
      <trkpt lat="42.77534" lon="0.21279">
        <ele>1748</ele>
        <time>2015-01-03T12:44:33.590Z</time>
      </trkpt>
      <trkpt lat="42.77533" lon="0.21263">
        <ele>1747</ele>
        <time>2015-01-03T12:44:36.590Z</time>
      </trkpt>
      <trkpt lat="42.77532" lon="0.21243">
        <ele>1747</ele>
        <time>2015-01-03T12:44:39.600Z</time>
      </trkpt>
      <trkpt lat="42.77529" lon="0.21228">
        <ele>1745</ele>
        <time>2015-01-03T12:44:41.590Z</time>
      </trkpt>
      <trkpt lat="42.7753" lon="0.21212">
        <ele>1745</ele>
        <time>2015-01-03T12:44:43.590Z</time>
      </trkpt>
      <trkpt lat="42.77533" lon="0.21196">
        <ele>1742.8</ele>
        <time>2015-01-03T12:44:45.590Z</time>
      </trkpt>
      <trkpt lat="42.77535" lon="0.21179">
        <ele>1740</ele>
        <time>2015-01-03T12:44:47.590Z</time>
      </trkpt>
      <trkpt lat="42.7754" lon="0.21163">
        <ele>1740</ele>
        <time>2015-01-03T12:44:49.310Z</time>
      </trkpt>
      <trkpt lat="42.77545" lon="0.21148">
        <ele>1735.6300032</ele>
        <time>2015-01-03T12:44:51.520Z</time>
      </trkpt>
      <trkpt lat="42.77546" lon="0.21129">
        <ele>1733.470591188</ele>
        <time>2015-01-03T12:44:53.690Z</time>
      </trkpt>
      <trkpt lat="42.77543" lon="0.21109">
        <ele>1732</ele>
        <time>2015-01-03T12:44:55.590Z</time>
      </trkpt>
      <trkpt lat="42.77544" lon="0.21093">
        <ele>1729.56</ele>
        <time>2015-01-03T12:44:57.590Z</time>
      </trkpt>
      <trkpt lat="42.77543" lon="0.21074">
        <ele>1727.5809511039</ele>
        <time>2015-01-03T12:44:59.590Z</time>
      </trkpt>
      <trkpt lat="42.77539" lon="0.21054">
        <ele>1726.1372494886</ele>
        <time>2015-01-03T12:45:01.590Z</time>
      </trkpt>
      <trkpt lat="42.77536" lon="0.21037">
        <ele>1723.56</ele>
        <time>2015-01-03T12:45:03.590Z</time>
      </trkpt>
      <trkpt lat="42.77531" lon="0.2102">
        <ele>1722</ele>
        <time>2015-01-03T12:45:05.590Z</time>
      </trkpt>
      <trkpt lat="42.77523" lon="0.21008">
        <ele>1719.5900288</ele>
        <time>2015-01-03T12:45:07.620Z</time>
      </trkpt>
      <trkpt lat="42.77512" lon="0.20997">
        <ele>1717</ele>
        <time>2015-01-03T12:45:09.590Z</time>
      </trkpt>
      <trkpt lat="42.77504" lon="0.20984">
        <ele>1714.56</ele>
        <time>2015-01-03T12:45:11.590Z</time>
      </trkpt>
      <trkpt lat="42.77507" lon="0.20961">
        <ele>1713</ele>
        <time>2015-01-03T12:45:14.590Z</time>
      </trkpt>
      <trkpt lat="42.77511" lon="0.20945">
        <ele>1712.56</ele>
        <time>2015-01-03T12:45:16.590Z</time>
      </trkpt>
      <trkpt lat="42.77516" lon="0.20927">
        <ele>1709</ele>
        <time>2015-01-03T12:45:18.590Z</time>
      </trkpt>
      <trkpt lat="42.77522" lon="0.20909">
        <ele>1708.56122409</ele>
        <time>2015-01-03T12:45:20.600Z</time>
      </trkpt>
      <trkpt lat="42.77519" lon="0.20891">
        <ele>1706.56</ele>
        <time>2015-01-03T12:45:22.590Z</time>
      </trkpt>
      <trkpt lat="42.77517" lon="0.20873">
        <ele>1704.56</ele>
        <time>2015-01-03T12:45:24.590Z</time>
      </trkpt>
      <trkpt lat="42.77513" lon="0.20854">
        <ele>1703</ele>
        <time>2015-01-03T12:45:26.590Z</time>
      </trkpt>
      <trkpt lat="42.77506" lon="0.20835">
        <ele>1701.12</ele>
        <time>2015-01-03T12:45:28.590Z</time>
      </trkpt>
      <trkpt lat="42.77499" lon="0.20817">
        <ele>1699</ele>
        <time>2015-01-03T12:45:30.590Z</time>
      </trkpt>
      <trkpt lat="42.77493" lon="0.20797">
        <ele>1697.12</ele>
        <time>2015-01-03T12:45:32.590Z</time>
      </trkpt>
      <trkpt lat="42.77485" lon="0.20778">
        <ele>1695</ele>
        <time>2015-01-03T12:45:34.590Z</time>
      </trkpt>
      <trkpt lat="42.77478" lon="0.20759">
        <ele>1693.12</ele>
        <time>2015-01-03T12:45:36.590Z</time>
      </trkpt>
      <trkpt lat="42.77474" lon="0.20741">
        <ele>1691</ele>
        <time>2015-01-03T12:45:38.600Z</time>
      </trkpt>
      <trkpt lat="42.77468" lon="0.20724">
        <ele>1687.56</ele>
        <time>2015-01-03T12:45:40.590Z</time>
      </trkpt>
      <trkpt lat="42.7746" lon="0.20706">
        <ele>1686.12</ele>
        <time>2015-01-03T12:45:42.590Z</time>
      </trkpt>
      <trkpt lat="42.77455" lon="0.20689">
        <ele>1683.56</ele>
        <time>2015-01-03T12:45:44.590Z</time>
      </trkpt>
      <trkpt lat="42.77449" lon="0.20671">
        <ele>1681.56</ele>
        <time>2015-01-03T12:45:46.590Z</time>
      </trkpt>
      <trkpt lat="42.77445" lon="0.20652">
        <ele>1680</ele>
        <time>2015-01-03T12:45:48.590Z</time>
      </trkpt>
      <trkpt lat="42.77442" lon="0.20636">
        <ele>1677.68</ele>
        <time>2015-01-03T12:45:50.590Z</time>
      </trkpt>
      <trkpt lat="42.77438" lon="0.20618">
        <ele>1676</ele>
        <time>2015-01-03T12:45:52.590Z</time>
      </trkpt>
      <trkpt lat="42.77433" lon="0.20601">
        <ele>1674.56</ele>
        <time>2015-01-03T12:45:54.590Z</time>
      </trkpt>
      <trkpt lat="42.77427" lon="0.20586">
        <ele>1672.56122409</ele>
        <time>2015-01-03T12:45:56.600Z</time>
      </trkpt>
      <trkpt lat="42.7742" lon="0.20571">
        <ele>1671</ele>
        <time>2015-01-03T12:45:58.590Z</time>
      </trkpt>
      <trkpt lat="42.77416" lon="0.20557">
        <ele>1669.56</ele>
        <time>2015-01-03T12:46:00.590Z</time>
      </trkpt>
      <trkpt lat="42.77412" lon="0.20543">
        <ele>1667</ele>
        <time>2015-01-03T12:46:02.590Z</time>
      </trkpt>
      <trkpt lat="42.7741" lon="0.20528">
        <ele>1665.56</ele>
        <time>2015-01-03T12:46:04.590Z</time>
      </trkpt>
      <trkpt lat="42.77409" lon="0.2051">
        <ele>1663.56</ele>
        <time>2015-01-03T12:46:06.590Z</time>
      </trkpt>
      <trkpt lat="42.7741" lon="0.20494">
        <ele>1661.56</ele>
        <time>2015-01-03T12:46:08.590Z</time>
      </trkpt>
      <trkpt lat="42.77411" lon="0.20478">
        <ele>1660</ele>
        <time>2015-01-03T12:46:10.590Z</time>
      </trkpt>
      <trkpt lat="42.7741" lon="0.20461">
        <ele>1660</ele>
        <time>2015-01-03T12:46:12.690Z</time>
      </trkpt>
      <trkpt lat="42.77408" lon="0.20443">
        <ele>1657.4600064</ele>
        <time>2015-01-03T12:46:14.690Z</time>
      </trkpt>
      <trkpt lat="42.77403" lon="0.20425">
        <ele>1656.56</ele>
        <time>2015-01-03T12:46:16.590Z</time>
      </trkpt>
      <trkpt lat="42.77401" lon="0.20408">
        <ele>1655</ele>
        <time>2015-01-03T12:46:18.590Z</time>
      </trkpt>
      <trkpt lat="42.77401" lon="0.20392">
        <ele>1653.56</ele>
        <time>2015-01-03T12:46:20.590Z</time>
      </trkpt>
      <trkpt lat="42.77396" lon="0.20375">
        <ele>1652.12</ele>
        <time>2015-01-03T12:46:22.590Z</time>
      </trkpt>
      <trkpt lat="42.7739" lon="0.2036">
        <ele>1650</ele>
        <time>2015-01-03T12:46:24.590Z</time>
      </trkpt>
      <trkpt lat="42.77383" lon="0.20348">
        <ele>1649.56</ele>
        <time>2015-01-03T12:46:26.590Z</time>
      </trkpt>
      <trkpt lat="42.77375" lon="0.20337">
        <ele>1648</ele>
        <time>2015-01-03T12:46:28.590Z</time>
      </trkpt>
      <trkpt lat="42.77366" lon="0.20326">
        <ele>1646.1372494886</ele>
        <time>2015-01-03T12:46:30.590Z</time>
      </trkpt>
      <trkpt lat="42.77361" lon="0.20312">
        <ele>1644</ele>
        <time>2015-01-03T12:46:32.590Z</time>
      </trkpt>
      <trkpt lat="42.77359" lon="0.20293">
        <ele>1643.56</ele>
        <time>2015-01-03T12:46:35.590Z</time>
      </trkpt>
      <trkpt lat="42.7736" lon="0.20276">
        <ele>1641.56</ele>
        <time>2015-01-03T12:46:38.590Z</time>
      </trkpt>
      <trkpt lat="42.7737" lon="0.20277">
        <ele>1639</ele>
        <time>2015-01-03T12:47:12.590Z</time>
      </trkpt>
      <trkpt lat="42.77376" lon="0.2026">
        <ele>1639</ele>
        <time>2015-01-03T12:47:15.590Z</time>
      </trkpt>
      <trkpt lat="42.7737" lon="0.20245">
        <ele>1639</ele>
        <time>2015-01-03T12:47:18.590Z</time>
      </trkpt>
      <trkpt lat="42.77359" lon="0.20234">
        <ele>1632</ele>
        <time>2015-01-03T12:47:26.590Z</time>
      </trkpt>
      <trkpt lat="42.77339" lon="0.20235">
        <ele>1633</ele>
        <time>2015-01-03T12:47:41.590Z</time>
      </trkpt>
      <trkpt lat="42.77329" lon="0.20229">
        <ele>1632.56</ele>
        <time>2015-01-03T12:47:50.590Z</time>
      </trkpt>
      <trkpt lat="42.77321" lon="0.2022">
        <ele>1630</ele>
        <time>2015-01-03T12:48:06.590Z</time>
      </trkpt>
      <trkpt lat="42.77315" lon="0.2021">
        <ele>1625</ele>
        <time>2015-01-03T12:48:37.590Z</time>
      </trkpt>
      <trkpt lat="42.77315" lon="0.202">
        <ele>1622</ele>
        <time>2015-01-03T12:50:04.790Z</time>
      </trkpt>
      <trkpt lat="42.77322" lon="0.202">
        <ele>1620</ele>
        <time>2015-01-03T12:50:26.790Z</time>
      </trkpt>
      <trkpt lat="42.77331" lon="0.202">
        <ele>1616</ele>
        <time>2015-01-03T12:51:13.610Z</time>
      </trkpt>
      <trkpt lat="42.77325" lon="0.20188">
        <ele>1609</ele>
        <time>2015-01-03T12:52:26.590Z</time>
      </trkpt>
      <trkpt lat="42.77334" lon="0.20177">
        <ele>1606</ele>
        <time>2015-01-03T12:52:41.590Z</time>
      </trkpt>
      <trkpt lat="42.77337" lon="0.20162">
        <ele>1600.68</ele>
        <time>2015-01-03T12:52:50.590Z</time>
      </trkpt>
      <trkpt lat="42.77345" lon="0.20149">
        <ele>1594.12</ele>
        <time>2015-01-03T12:52:57.590Z</time>
      </trkpt>
      <trkpt lat="42.77352" lon="0.20136">
        <ele>1589.68</ele>
        <time>2015-01-03T12:53:00.590Z</time>
      </trkpt>
      <trkpt lat="42.77348" lon="0.20121">
        <ele>1583</ele>
        <time>2015-01-03T12:53:07.590Z</time>
      </trkpt>
      <trkpt lat="42.77348" lon="0.20105">
        <ele>1579.56</ele>
        <time>2015-01-03T12:53:12.590Z</time>
      </trkpt>
      <trkpt lat="42.77349" lon="0.20088">
        <ele>1575.56</ele>
        <time>2015-01-03T12:53:16.590Z</time>
      </trkpt>
      <trkpt lat="42.77362" lon="0.20075">
        <ele>1572.0600192</ele>
        <time>2015-01-03T12:53:19.620Z</time>
      </trkpt>
      <trkpt lat="42.77372" lon="0.20059">
        <ele>1568</ele>
        <time>2015-01-03T12:53:22.590Z</time>
      </trkpt>
      <trkpt lat="42.77381" lon="0.20044">
        <ele>1565</ele>
        <time>2015-01-03T12:53:25.590Z</time>
      </trkpt>
      <trkpt lat="42.77386" lon="0.20031">
        <ele>1563.56</ele>
        <time>2015-01-03T12:53:27.590Z</time>
      </trkpt>
      <trkpt lat="42.77375" lon="0.20016">
        <ele>1562</ele>
        <time>2015-01-03T12:53:29.590Z</time>
      </trkpt>
      <trkpt lat="42.77367" lon="0.20007">
        <ele>1560.5686247443</ele>
        <time>2015-01-03T12:53:31.590Z</time>
      </trkpt>
      <trkpt lat="42.77365" lon="0.19993">
        <ele>1557</ele>
        <time>2015-01-03T12:53:35.590Z</time>
      </trkpt>
      <trkpt lat="42.77369" lon="0.1998">
        <ele>1557</ele>
        <time>2015-01-03T12:53:40.590Z</time>
      </trkpt>
      <trkpt lat="42.77369" lon="0.19965">
        <ele>1557</ele>
        <time>2015-01-03T12:53:44.590Z</time>
      </trkpt>
      <trkpt lat="42.77363" lon="0.19953">
        <ele>1554</ele>
        <time>2015-01-03T12:53:48.590Z</time>
      </trkpt>
      <trkpt lat="42.77356" lon="0.19937">
        <ele>1552.3846175486</ele>
        <time>2015-01-03T12:54:00.590Z</time>
      </trkpt>
      <trkpt lat="42.77355" lon="0.19936">
        <ele>1553</ele>
        <time>2015-01-03T12:54:02.080Z</time>
      </trkpt>
    </trkseg>
  </trk>
</gpx>